<?xml version="1.0" encoding="UTF-8" standalone="no" ?>
<gpx xmlns="http://www.topografix.com/GPX/1/1" xmlns:xsi="http://www.w3.org/2001/XMLSchema-instance" xsi:schemaLocation="http://www.topografix.com/GPX/1/1 http://www.topografix.com/GPX/1/1/gpx.xsd" version="1.1" creator="VisuGPX - https://www.visugpx.com">
  <metadata>
    <name>Le Fanget Negron</name>
  </metadata>
  <trk>
    <name><![CDATA[19-APR-22 17:20:21]]></name>
    <trkseg>
      <trkpt lat="44.32793" lon="6.32698">
        <ele>1449.81</ele>
        <time>2022-04-19T11:23:01Z</time>
      </trkpt>
      <trkpt lat="44.32792" lon="6.32697">
        <ele>1450.77</ele>
        <time>2022-04-19T11:23:31Z</time>
      </trkpt>
      <trkpt lat="44.32787" lon="6.32701">
        <ele>1451.73</ele>
        <time>2022-04-19T11:23:47Z</time>
      </trkpt>
      <trkpt lat="44.32782" lon="6.32705">
        <ele>1451.73</ele>
        <time>2022-04-19T11:23:52Z</time>
      </trkpt>
      <trkpt lat="44.32772" lon="6.32709">
        <ele>1451.73</ele>
        <time>2022-04-19T11:24:00Z</time>
      </trkpt>
      <trkpt lat="44.32772" lon="6.32727">
        <ele>1451.25</ele>
        <time>2022-04-19T11:24:16Z</time>
      </trkpt>
      <trkpt lat="44.32762" lon="6.32739">
        <ele>1450.29</ele>
        <time>2022-04-19T11:24:32Z</time>
      </trkpt>
      <trkpt lat="44.32741" lon="6.32753">
        <ele>1453.17</ele>
        <time>2022-04-19T11:24:54Z</time>
      </trkpt>
      <trkpt lat="44.32729" lon="6.32773">
        <ele>1455.57</ele>
        <time>2022-04-19T11:25:13Z</time>
      </trkpt>
      <trkpt lat="44.32719" lon="6.32796">
        <ele>1457.02</ele>
        <time>2022-04-19T11:25:33Z</time>
      </trkpt>
      <trkpt lat="44.32709" lon="6.32807">
        <ele>1457.98</ele>
        <time>2022-04-19T11:25:50Z</time>
      </trkpt>
      <trkpt lat="44.32701" lon="6.32806">
        <ele>1457.98</ele>
        <time>2022-04-19T11:26:08Z</time>
      </trkpt>
      <trkpt lat="44.32682" lon="6.32796">
        <ele>1457.98</ele>
        <time>2022-04-19T11:26:29Z</time>
      </trkpt>
      <trkpt lat="44.32679" lon="6.32793">
        <ele>1457.5</ele>
        <time>2022-04-19T11:26:33Z</time>
      </trkpt>
      <trkpt lat="44.32663" lon="6.32785">
        <ele>1457.02</ele>
        <time>2022-04-19T11:26:50Z</time>
      </trkpt>
      <trkpt lat="44.32643" lon="6.32781">
        <ele>1456.05</ele>
        <time>2022-04-19T11:27:10Z</time>
      </trkpt>
      <trkpt lat="44.32622" lon="6.3278">
        <ele>1455.57</ele>
        <time>2022-04-19T11:27:30Z</time>
      </trkpt>
      <trkpt lat="44.32615" lon="6.32779">
        <ele>1455.57</ele>
        <time>2022-04-19T11:27:44Z</time>
      </trkpt>
      <trkpt lat="44.32595" lon="6.32782">
        <ele>1453.65</ele>
        <time>2022-04-19T11:28:01Z</time>
      </trkpt>
      <trkpt lat="44.32577" lon="6.32788">
        <ele>1449.81</ele>
        <time>2022-04-19T11:28:18Z</time>
      </trkpt>
      <trkpt lat="44.32553" lon="6.32793">
        <ele>1443.56</ele>
        <time>2022-04-19T11:28:39Z</time>
      </trkpt>
      <trkpt lat="44.32539" lon="6.32797">
        <ele>1438.27</ele>
        <time>2022-04-19T11:28:53Z</time>
      </trkpt>
      <trkpt lat="44.32526" lon="6.32801">
        <ele>1433.94</ele>
        <time>2022-04-19T11:29:05Z</time>
      </trkpt>
      <trkpt lat="44.32523" lon="6.328">
        <ele>1433.94</ele>
        <time>2022-04-19T11:29:08Z</time>
      </trkpt>
      <trkpt lat="44.32521" lon="6.32781">
        <ele>1445.96</ele>
        <time>2022-04-19T11:29:27Z</time>
      </trkpt>
      <trkpt lat="44.32529" lon="6.32771">
        <ele>1450.29</ele>
        <time>2022-04-19T11:29:41Z</time>
      </trkpt>
      <trkpt lat="44.32534" lon="6.32767">
        <ele>1453.65</ele>
        <time>2022-04-19T11:29:58Z</time>
      </trkpt>
      <trkpt lat="44.3254" lon="6.32762">
        <ele>1454.61</ele>
        <time>2022-04-19T11:30:04Z</time>
      </trkpt>
      <trkpt lat="44.32555" lon="6.32749">
        <ele>1457.98</ele>
        <time>2022-04-19T11:30:22Z</time>
      </trkpt>
      <trkpt lat="44.32564" lon="6.3273">
        <ele>1458.94</ele>
        <time>2022-04-19T11:30:39Z</time>
      </trkpt>
      <trkpt lat="44.32564" lon="6.32713">
        <ele>1462.78</ele>
        <time>2022-04-19T11:30:54Z</time>
      </trkpt>
      <trkpt lat="44.32565" lon="6.32706">
        <ele>1465.19</ele>
        <time>2022-04-19T11:31:07Z</time>
      </trkpt>
      <trkpt lat="44.32563" lon="6.32699">
        <ele>1466.15</ele>
        <time>2022-04-19T11:31:12Z</time>
      </trkpt>
      <trkpt lat="44.32558" lon="6.32679">
        <ele>1469.51</ele>
        <time>2022-04-19T11:31:29Z</time>
      </trkpt>
      <trkpt lat="44.32548" lon="6.32666">
        <ele>1471.92</ele>
        <time>2022-04-19T11:31:46Z</time>
      </trkpt>
      <trkpt lat="44.32539" lon="6.32659">
        <ele>1473.84</ele>
        <time>2022-04-19T11:31:59Z</time>
      </trkpt>
      <trkpt lat="44.32531" lon="6.32641">
        <ele>1476.24</ele>
        <time>2022-04-19T11:32:15Z</time>
      </trkpt>
      <trkpt lat="44.32531" lon="6.32636">
        <ele>1477.2</ele>
        <time>2022-04-19T11:32:19Z</time>
      </trkpt>
      <trkpt lat="44.32534" lon="6.32628">
        <ele>1479.61</ele>
        <time>2022-04-19T11:32:31Z</time>
      </trkpt>
      <trkpt lat="44.32535" lon="6.32623">
        <ele>1480.57</ele>
        <time>2022-04-19T11:32:45Z</time>
      </trkpt>
      <trkpt lat="44.32538" lon="6.32611">
        <ele>1482.01</ele>
        <time>2022-04-19T11:32:57Z</time>
      </trkpt>
      <trkpt lat="44.32542" lon="6.32607">
        <ele>1482.49</ele>
        <time>2022-04-19T11:33:12Z</time>
      </trkpt>
      <trkpt lat="44.32546" lon="6.32588">
        <ele>1482.97</ele>
        <time>2022-04-19T11:33:28Z</time>
      </trkpt>
      <trkpt lat="44.32545" lon="6.32569">
        <ele>1483.45</ele>
        <time>2022-04-19T11:33:43Z</time>
      </trkpt>
      <trkpt lat="44.32545" lon="6.32568">
        <ele>1483.45</ele>
        <time>2022-04-19T11:33:44Z</time>
      </trkpt>
      <trkpt lat="44.32542" lon="6.32545">
        <ele>1485.37</ele>
        <time>2022-04-19T11:34:02Z</time>
      </trkpt>
      <trkpt lat="44.32542" lon="6.32523">
        <ele>1487.3</ele>
        <time>2022-04-19T11:34:20Z</time>
      </trkpt>
      <trkpt lat="44.32542" lon="6.32522">
        <ele>1487.3</ele>
        <time>2022-04-19T11:34:21Z</time>
      </trkpt>
      <trkpt lat="44.32548" lon="6.32502">
        <ele>1488.74</ele>
        <time>2022-04-19T11:34:39Z</time>
      </trkpt>
      <trkpt lat="44.32558" lon="6.32489">
        <ele>1490.18</ele>
        <time>2022-04-19T11:34:55Z</time>
      </trkpt>
      <trkpt lat="44.32559" lon="6.32488">
        <ele>1490.66</ele>
        <time>2022-04-19T11:34:56Z</time>
      </trkpt>
      <trkpt lat="44.3257" lon="6.32472">
        <ele>1491.14</ele>
        <time>2022-04-19T11:35:13Z</time>
      </trkpt>
      <trkpt lat="44.32578" lon="6.32456">
        <ele>1491.14</ele>
        <time>2022-04-19T11:35:29Z</time>
      </trkpt>
      <trkpt lat="44.32584" lon="6.32441">
        <ele>1491.62</ele>
        <time>2022-04-19T11:35:45Z</time>
      </trkpt>
      <trkpt lat="44.32592" lon="6.32425">
        <ele>1492.58</ele>
        <time>2022-04-19T11:36:01Z</time>
      </trkpt>
      <trkpt lat="44.32599" lon="6.32407">
        <ele>1492.58</ele>
        <time>2022-04-19T11:36:19Z</time>
      </trkpt>
      <trkpt lat="44.32605" lon="6.32393">
        <ele>1493.55</ele>
        <time>2022-04-19T11:36:34Z</time>
      </trkpt>
      <trkpt lat="44.3261" lon="6.3239">
        <ele>1495.47</ele>
        <time>2022-04-19T11:36:55Z</time>
      </trkpt>
      <trkpt lat="44.32616" lon="6.32371">
        <ele>1495.47</ele>
        <time>2022-04-19T11:37:12Z</time>
      </trkpt>
      <trkpt lat="44.32619" lon="6.32353">
        <ele>1494.99</ele>
        <time>2022-04-19T11:37:27Z</time>
      </trkpt>
      <trkpt lat="44.3262" lon="6.32346">
        <ele>1495.47</ele>
        <time>2022-04-19T11:37:32Z</time>
      </trkpt>
      <trkpt lat="44.32622" lon="6.32325">
        <ele>1496.91</ele>
        <time>2022-04-19T11:37:48Z</time>
      </trkpt>
      <trkpt lat="44.32623" lon="6.32305">
        <ele>1497.39</ele>
        <time>2022-04-19T11:38:04Z</time>
      </trkpt>
      <trkpt lat="44.32624" lon="6.32283">
        <ele>1498.83</ele>
        <time>2022-04-19T11:38:20Z</time>
      </trkpt>
      <trkpt lat="44.32629" lon="6.32264">
        <ele>1499.79</ele>
        <time>2022-04-19T11:38:33Z</time>
      </trkpt>
      <trkpt lat="44.32638" lon="6.32242">
        <ele>1500.27</ele>
        <time>2022-04-19T11:38:50Z</time>
      </trkpt>
      <trkpt lat="44.32649" lon="6.32225">
        <ele>1501.24</ele>
        <time>2022-04-19T11:39:06Z</time>
      </trkpt>
      <trkpt lat="44.3266" lon="6.32209">
        <ele>1500.76</ele>
        <time>2022-04-19T11:39:22Z</time>
      </trkpt>
      <trkpt lat="44.32673" lon="6.32187">
        <ele>1501.24</ele>
        <time>2022-04-19T11:39:41Z</time>
      </trkpt>
      <trkpt lat="44.32679" lon="6.32181">
        <ele>1502.68</ele>
        <time>2022-04-19T11:39:57Z</time>
      </trkpt>
      <trkpt lat="44.32682" lon="6.32178">
        <ele>1503.64</ele>
        <time>2022-04-19T11:40:13Z</time>
      </trkpt>
      <trkpt lat="44.32691" lon="6.32163">
        <ele>1505.08</ele>
        <time>2022-04-19T11:40:33Z</time>
      </trkpt>
      <trkpt lat="44.32706" lon="6.32145">
        <ele>1506.52</ele>
        <time>2022-04-19T11:40:50Z</time>
      </trkpt>
      <trkpt lat="44.32723" lon="6.32125">
        <ele>1507.48</ele>
        <time>2022-04-19T11:41:11Z</time>
      </trkpt>
      <trkpt lat="44.32736" lon="6.32109">
        <ele>1507.48</ele>
        <time>2022-04-19T11:41:27Z</time>
      </trkpt>
      <trkpt lat="44.32752" lon="6.32093">
        <ele>1507.48</ele>
        <time>2022-04-19T11:41:45Z</time>
      </trkpt>
      <trkpt lat="44.32765" lon="6.32079">
        <ele>1507</ele>
        <time>2022-04-19T11:42:01Z</time>
      </trkpt>
      <trkpt lat="44.32777" lon="6.32062">
        <ele>1507</ele>
        <time>2022-04-19T11:42:17Z</time>
      </trkpt>
      <trkpt lat="44.32787" lon="6.32049">
        <ele>1505.56</ele>
        <time>2022-04-19T11:42:30Z</time>
      </trkpt>
      <trkpt lat="44.32793" lon="6.32036">
        <ele>1504.6</ele>
        <time>2022-04-19T11:42:40Z</time>
      </trkpt>
      <trkpt lat="44.32801" lon="6.32013">
        <ele>1502.2</ele>
        <time>2022-04-19T11:42:57Z</time>
      </trkpt>
      <trkpt lat="44.32801" lon="6.32012">
        <ele>1502.2</ele>
        <time>2022-04-19T11:43:01Z</time>
      </trkpt>
      <trkpt lat="44.32792" lon="6.31997">
        <ele>1500.76</ele>
        <time>2022-04-19T11:43:18Z</time>
      </trkpt>
      <trkpt lat="44.32781" lon="6.31989">
        <ele>1501.72</ele>
        <time>2022-04-19T11:43:29Z</time>
      </trkpt>
      <trkpt lat="44.3276" lon="6.31984">
        <ele>1505.08</ele>
        <time>2022-04-19T11:43:46Z</time>
      </trkpt>
      <trkpt lat="44.32745" lon="6.31984">
        <ele>1507.97</ele>
        <time>2022-04-19T11:44:00Z</time>
      </trkpt>
      <trkpt lat="44.32728" lon="6.31975">
        <ele>1509.41</ele>
        <time>2022-04-19T11:44:16Z</time>
      </trkpt>
      <trkpt lat="44.32718" lon="6.3196">
        <ele>1508.93</ele>
        <time>2022-04-19T11:44:32Z</time>
      </trkpt>
      <trkpt lat="44.32717" lon="6.31952">
        <ele>1509.89</ele>
        <time>2022-04-19T11:44:38Z</time>
      </trkpt>
      <trkpt lat="44.32718" lon="6.31944">
        <ele>1510.85</ele>
        <time>2022-04-19T11:44:43Z</time>
      </trkpt>
      <trkpt lat="44.32723" lon="6.31934">
        <ele>1511.33</ele>
        <time>2022-04-19T11:44:52Z</time>
      </trkpt>
      <trkpt lat="44.32735" lon="6.31919">
        <ele>1513.25</ele>
        <time>2022-04-19T11:45:08Z</time>
      </trkpt>
      <trkpt lat="44.32748" lon="6.31908">
        <ele>1517.58</ele>
        <time>2022-04-19T11:45:23Z</time>
      </trkpt>
      <trkpt lat="44.32764" lon="6.31896">
        <ele>1520.46</ele>
        <time>2022-04-19T11:45:40Z</time>
      </trkpt>
      <trkpt lat="44.32781" lon="6.31882">
        <ele>1522.87</ele>
        <time>2022-04-19T11:45:59Z</time>
      </trkpt>
      <trkpt lat="44.32797" lon="6.31865">
        <ele>1524.31</ele>
        <time>2022-04-19T11:46:18Z</time>
      </trkpt>
      <trkpt lat="44.32804" lon="6.3185">
        <ele>1524.79</ele>
        <time>2022-04-19T11:46:33Z</time>
      </trkpt>
      <trkpt lat="44.32808" lon="6.31834">
        <ele>1522.87</ele>
        <time>2022-04-19T11:46:47Z</time>
      </trkpt>
      <trkpt lat="44.32814" lon="6.31815">
        <ele>1522.87</ele>
        <time>2022-04-19T11:47:02Z</time>
      </trkpt>
      <trkpt lat="44.3282" lon="6.31797">
        <ele>1524.31</ele>
        <time>2022-04-19T11:47:15Z</time>
      </trkpt>
      <trkpt lat="44.32821" lon="6.31782">
        <ele>1525.75</ele>
        <time>2022-04-19T11:47:28Z</time>
      </trkpt>
      <trkpt lat="44.32821" lon="6.31781">
        <ele>1525.75</ele>
        <time>2022-04-19T11:47:29Z</time>
      </trkpt>
      <trkpt lat="44.32824" lon="6.31766">
        <ele>1525.75</ele>
        <time>2022-04-19T11:47:40Z</time>
      </trkpt>
      <trkpt lat="44.32825" lon="6.31756">
        <ele>1526.23</ele>
        <time>2022-04-19T11:47:55Z</time>
      </trkpt>
      <trkpt lat="44.32824" lon="6.31742">
        <ele>1525.75</ele>
        <time>2022-04-19T11:48:08Z</time>
      </trkpt>
      <trkpt lat="44.32824" lon="6.31733">
        <ele>1525.75</ele>
        <time>2022-04-19T11:48:16Z</time>
      </trkpt>
      <trkpt lat="44.32823" lon="6.31716">
        <ele>1525.75</ele>
        <time>2022-04-19T11:48:31Z</time>
      </trkpt>
      <trkpt lat="44.32821" lon="6.31696">
        <ele>1528.15</ele>
        <time>2022-04-19T11:48:46Z</time>
      </trkpt>
      <trkpt lat="44.32819" lon="6.31675">
        <ele>1528.63</ele>
        <time>2022-04-19T11:49:03Z</time>
      </trkpt>
      <trkpt lat="44.32823" lon="6.31663">
        <ele>1534.4</ele>
        <time>2022-04-19T11:49:17Z</time>
      </trkpt>
      <trkpt lat="44.32824" lon="6.31658">
        <ele>1535.36</ele>
        <time>2022-04-19T11:49:41Z</time>
      </trkpt>
      <trkpt lat="44.32821" lon="6.31636">
        <ele>1537.77</ele>
        <time>2022-04-19T11:49:58Z</time>
      </trkpt>
      <trkpt lat="44.32809" lon="6.31623">
        <ele>1540.17</ele>
        <time>2022-04-19T11:50:11Z</time>
      </trkpt>
      <trkpt lat="44.3281" lon="6.31622">
        <ele>1543.05</ele>
        <time>2022-04-19T11:50:29Z</time>
      </trkpt>
      <trkpt lat="44.32811" lon="6.31623">
        <ele>1544.5</ele>
        <time>2022-04-19T11:50:52Z</time>
      </trkpt>
      <trkpt lat="44.3281" lon="6.31627">
        <ele>1544.98</ele>
        <time>2022-04-19T11:51:14Z</time>
      </trkpt>
      <trkpt lat="44.32806" lon="6.31639">
        <ele>1546.9</ele>
        <time>2022-04-19T11:51:23Z</time>
      </trkpt>
      <trkpt lat="44.32803" lon="6.31657">
        <ele>1550.74</ele>
        <time>2022-04-19T11:51:37Z</time>
      </trkpt>
      <trkpt lat="44.32797" lon="6.31676">
        <ele>1550.26</ele>
        <time>2022-04-19T11:51:53Z</time>
      </trkpt>
      <trkpt lat="44.32789" lon="6.31695">
        <ele>1552.19</ele>
        <time>2022-04-19T11:52:09Z</time>
      </trkpt>
      <trkpt lat="44.32779" lon="6.31712">
        <ele>1553.15</ele>
        <time>2022-04-19T11:52:25Z</time>
      </trkpt>
      <trkpt lat="44.32767" lon="6.31724">
        <ele>1552.19</ele>
        <time>2022-04-19T11:52:40Z</time>
      </trkpt>
      <trkpt lat="44.3276" lon="6.31731">
        <ele>1551.71</ele>
        <time>2022-04-19T11:52:49Z</time>
      </trkpt>
      <trkpt lat="44.32744" lon="6.3174">
        <ele>1554.59</ele>
        <time>2022-04-19T11:53:06Z</time>
      </trkpt>
      <trkpt lat="44.32731" lon="6.3175">
        <ele>1557.95</ele>
        <time>2022-04-19T11:53:21Z</time>
      </trkpt>
      <trkpt lat="44.32718" lon="6.3176">
        <ele>1557.95</ele>
        <time>2022-04-19T11:53:37Z</time>
      </trkpt>
      <trkpt lat="44.32704" lon="6.31769">
        <ele>1556.99</ele>
        <time>2022-04-19T11:53:53Z</time>
      </trkpt>
      <trkpt lat="44.32689" lon="6.31776">
        <ele>1556.51</ele>
        <time>2022-04-19T11:54:08Z</time>
      </trkpt>
      <trkpt lat="44.32675" lon="6.31781">
        <ele>1555.55</ele>
        <time>2022-04-19T11:54:23Z</time>
      </trkpt>
      <trkpt lat="44.3266" lon="6.31786">
        <ele>1556.99</ele>
        <time>2022-04-19T11:54:38Z</time>
      </trkpt>
      <trkpt lat="44.32642" lon="6.31788">
        <ele>1558.43</ele>
        <time>2022-04-19T11:54:56Z</time>
      </trkpt>
      <trkpt lat="44.32634" lon="6.31792">
        <ele>1558.92</ele>
        <time>2022-04-19T11:55:16Z</time>
      </trkpt>
      <trkpt lat="44.32619" lon="6.31801">
        <ele>1560.84</ele>
        <time>2022-04-19T11:55:31Z</time>
      </trkpt>
      <trkpt lat="44.32604" lon="6.3181">
        <ele>1563.72</ele>
        <time>2022-04-19T11:55:47Z</time>
      </trkpt>
      <trkpt lat="44.32589" lon="6.31815">
        <ele>1565.16</ele>
        <time>2022-04-19T11:56:03Z</time>
      </trkpt>
      <trkpt lat="44.32571" lon="6.3182">
        <ele>1564.2</ele>
        <time>2022-04-19T11:56:20Z</time>
      </trkpt>
      <trkpt lat="44.32556" lon="6.31818">
        <ele>1566.12</ele>
        <time>2022-04-19T11:56:34Z</time>
      </trkpt>
      <trkpt lat="44.32541" lon="6.31814">
        <ele>1567.09</ele>
        <time>2022-04-19T11:56:52Z</time>
      </trkpt>
      <trkpt lat="44.32524" lon="6.31807">
        <ele>1566.12</ele>
        <time>2022-04-19T11:57:10Z</time>
      </trkpt>
      <trkpt lat="44.32514" lon="6.31803">
        <ele>1568.05</ele>
        <time>2022-04-19T11:57:19Z</time>
      </trkpt>
      <trkpt lat="44.32504" lon="6.31808">
        <ele>1569.01</ele>
        <time>2022-04-19T11:57:34Z</time>
      </trkpt>
      <trkpt lat="44.32501" lon="6.3181">
        <ele>1569.01</ele>
        <time>2022-04-19T11:57:52Z</time>
      </trkpt>
      <trkpt lat="44.325" lon="6.3181">
        <ele>1568.53</ele>
        <time>2022-04-19T11:58:17Z</time>
      </trkpt>
      <trkpt lat="44.32485" lon="6.31813">
        <ele>1568.53</ele>
        <time>2022-04-19T11:58:32Z</time>
      </trkpt>
      <trkpt lat="44.32472" lon="6.31819">
        <ele>1569.49</ele>
        <time>2022-04-19T11:58:47Z</time>
      </trkpt>
      <trkpt lat="44.32458" lon="6.31823">
        <ele>1570.45</ele>
        <time>2022-04-19T11:59:03Z</time>
      </trkpt>
      <trkpt lat="44.32446" lon="6.31827">
        <ele>1572.37</ele>
        <time>2022-04-19T11:59:18Z</time>
      </trkpt>
      <trkpt lat="44.32448" lon="6.3183">
        <ele>1576.7</ele>
        <time>2022-04-19T11:59:35Z</time>
      </trkpt>
      <trkpt lat="44.32443" lon="6.3183">
        <ele>1577.18</ele>
        <time>2022-04-19T11:59:43Z</time>
      </trkpt>
      <trkpt lat="44.32427" lon="6.31828">
        <ele>1577.18</ele>
        <time>2022-04-19T11:59:59Z</time>
      </trkpt>
      <trkpt lat="44.32416" lon="6.31822">
        <ele>1579.1</ele>
        <time>2022-04-19T12:00:14Z</time>
      </trkpt>
      <trkpt lat="44.3241" lon="6.31806">
        <ele>1584.39</ele>
        <time>2022-04-19T12:00:31Z</time>
      </trkpt>
      <trkpt lat="44.32411" lon="6.31802">
        <ele>1586.31</ele>
        <time>2022-04-19T12:00:49Z</time>
      </trkpt>
      <trkpt lat="44.32412" lon="6.31793">
        <ele>1587.27</ele>
        <time>2022-04-19T12:01:11Z</time>
      </trkpt>
      <trkpt lat="44.32415" lon="6.31783">
        <ele>1588.72</ele>
        <time>2022-04-19T12:01:22Z</time>
      </trkpt>
      <trkpt lat="44.32421" lon="6.31766">
        <ele>1590.16</ele>
        <time>2022-04-19T12:01:38Z</time>
      </trkpt>
      <trkpt lat="44.32422" lon="6.31764">
        <ele>1590.16</ele>
        <time>2022-04-19T12:01:55Z</time>
      </trkpt>
      <trkpt lat="44.32427" lon="6.31749">
        <ele>1590.16</ele>
        <time>2022-04-19T12:02:12Z</time>
      </trkpt>
      <trkpt lat="44.32433" lon="6.31735">
        <ele>1591.6</ele>
        <time>2022-04-19T12:02:27Z</time>
      </trkpt>
      <trkpt lat="44.32437" lon="6.31721">
        <ele>1592.08</ele>
        <time>2022-04-19T12:02:41Z</time>
      </trkpt>
      <trkpt lat="44.32443" lon="6.31703">
        <ele>1593.04</ele>
        <time>2022-04-19T12:02:58Z</time>
      </trkpt>
      <trkpt lat="44.32446" lon="6.31686">
        <ele>1595.45</ele>
        <time>2022-04-19T12:03:13Z</time>
      </trkpt>
      <trkpt lat="44.32449" lon="6.3167">
        <ele>1596.89</ele>
        <time>2022-04-19T12:03:28Z</time>
      </trkpt>
      <trkpt lat="44.32449" lon="6.31651">
        <ele>1598.81</ele>
        <time>2022-04-19T12:03:44Z</time>
      </trkpt>
      <trkpt lat="44.32449" lon="6.31648">
        <ele>1598.81</ele>
        <time>2022-04-19T12:03:47Z</time>
      </trkpt>
      <trkpt lat="44.32442" lon="6.3163">
        <ele>1600.25</ele>
        <time>2022-04-19T12:04:04Z</time>
      </trkpt>
      <trkpt lat="44.32435" lon="6.31614">
        <ele>1602.17</ele>
        <time>2022-04-19T12:04:21Z</time>
      </trkpt>
      <trkpt lat="44.32426" lon="6.316">
        <ele>1604.1</ele>
        <time>2022-04-19T12:04:37Z</time>
      </trkpt>
      <trkpt lat="44.32422" lon="6.31593">
        <ele>1605.54</ele>
        <time>2022-04-19T12:04:54Z</time>
      </trkpt>
      <trkpt lat="44.32421" lon="6.31597">
        <ele>1606.5</ele>
        <time>2022-04-19T12:05:16Z</time>
      </trkpt>
      <trkpt lat="44.32421" lon="6.31598">
        <ele>1606.5</ele>
        <time>2022-04-19T12:05:40Z</time>
      </trkpt>
      <trkpt lat="44.32417" lon="6.31585">
        <ele>1607.46</ele>
        <time>2022-04-19T12:06:01Z</time>
      </trkpt>
      <trkpt lat="44.32419" lon="6.31576">
        <ele>1608.42</ele>
        <time>2022-04-19T12:06:09Z</time>
      </trkpt>
      <trkpt lat="44.32431" lon="6.31559">
        <ele>1612.27</ele>
        <time>2022-04-19T12:06:28Z</time>
      </trkpt>
      <trkpt lat="44.32438" lon="6.31548">
        <ele>1615.63</ele>
        <time>2022-04-19T12:06:43Z</time>
      </trkpt>
      <trkpt lat="44.32447" lon="6.31535">
        <ele>1617.07</ele>
        <time>2022-04-19T12:06:59Z</time>
      </trkpt>
      <trkpt lat="44.32452" lon="6.31528">
        <ele>1617.56</ele>
        <time>2022-04-19T12:07:07Z</time>
      </trkpt>
      <trkpt lat="44.32458" lon="6.31518">
        <ele>1619</ele>
        <time>2022-04-19T12:07:22Z</time>
      </trkpt>
      <trkpt lat="44.32458" lon="6.31517">
        <ele>1619</ele>
        <time>2022-04-19T12:07:42Z</time>
      </trkpt>
      <trkpt lat="44.32464" lon="6.31503">
        <ele>1617.56</ele>
        <time>2022-04-19T12:07:59Z</time>
      </trkpt>
      <trkpt lat="44.32467" lon="6.31485">
        <ele>1616.59</ele>
        <time>2022-04-19T12:08:13Z</time>
      </trkpt>
      <trkpt lat="44.32472" lon="6.31463">
        <ele>1617.07</ele>
        <time>2022-04-19T12:08:30Z</time>
      </trkpt>
      <trkpt lat="44.32476" lon="6.31445">
        <ele>1619.96</ele>
        <time>2022-04-19T12:08:46Z</time>
      </trkpt>
      <trkpt lat="44.32482" lon="6.31428">
        <ele>1620.44</ele>
        <time>2022-04-19T12:09:00Z</time>
      </trkpt>
      <trkpt lat="44.32494" lon="6.31412">
        <ele>1620.92</ele>
        <time>2022-04-19T12:09:20Z</time>
      </trkpt>
      <trkpt lat="44.32495" lon="6.31413">
        <ele>1620.92</ele>
        <time>2022-04-19T12:09:40Z</time>
      </trkpt>
      <trkpt lat="44.325" lon="6.31406">
        <ele>1621.88</ele>
        <time>2022-04-19T12:09:57Z</time>
      </trkpt>
      <trkpt lat="44.32509" lon="6.31389">
        <ele>1623.8</ele>
        <time>2022-04-19T12:10:14Z</time>
      </trkpt>
      <trkpt lat="44.32517" lon="6.31372">
        <ele>1626.21</ele>
        <time>2022-04-19T12:10:32Z</time>
      </trkpt>
      <trkpt lat="44.3252" lon="6.31356">
        <ele>1627.17</ele>
        <time>2022-04-19T12:10:48Z</time>
      </trkpt>
      <trkpt lat="44.32521" lon="6.3135">
        <ele>1627.65</ele>
        <time>2022-04-19T12:11:04Z</time>
      </trkpt>
      <trkpt lat="44.32524" lon="6.31338">
        <ele>1629.09</ele>
        <time>2022-04-19T12:11:19Z</time>
      </trkpt>
      <trkpt lat="44.32526" lon="6.31323">
        <ele>1630.53</ele>
        <time>2022-04-19T12:11:35Z</time>
      </trkpt>
      <trkpt lat="44.32529" lon="6.31307">
        <ele>1631.01</ele>
        <time>2022-04-19T12:11:51Z</time>
      </trkpt>
      <trkpt lat="44.32529" lon="6.31289">
        <ele>1631.98</ele>
        <time>2022-04-19T12:12:10Z</time>
      </trkpt>
      <trkpt lat="44.3253" lon="6.31279">
        <ele>1633.9</ele>
        <time>2022-04-19T12:12:29Z</time>
      </trkpt>
      <trkpt lat="44.32531" lon="6.31258">
        <ele>1637.26</ele>
        <time>2022-04-19T12:12:46Z</time>
      </trkpt>
      <trkpt lat="44.32536" lon="6.31242">
        <ele>1638.22</ele>
        <time>2022-04-19T12:13:04Z</time>
      </trkpt>
      <trkpt lat="44.32536" lon="6.31242">
        <ele>1639.67</ele>
        <time>2022-04-19T12:13:30Z</time>
      </trkpt>
      <trkpt lat="44.32542" lon="6.31226">
        <ele>1641.11</ele>
        <time>2022-04-19T12:13:47Z</time>
      </trkpt>
      <trkpt lat="44.32545" lon="6.31212">
        <ele>1643.51</ele>
        <time>2022-04-19T12:14:01Z</time>
      </trkpt>
      <trkpt lat="44.32552" lon="6.31197">
        <ele>1644.47</ele>
        <time>2022-04-19T12:14:18Z</time>
      </trkpt>
      <trkpt lat="44.32551" lon="6.31186">
        <ele>1645.43</ele>
        <time>2022-04-19T12:14:37Z</time>
      </trkpt>
      <trkpt lat="44.32541" lon="6.31192">
        <ele>1645.43</ele>
        <time>2022-04-19T12:14:51Z</time>
      </trkpt>
      <trkpt lat="44.32524" lon="6.31194">
        <ele>1647.36</ele>
        <time>2022-04-19T12:15:07Z</time>
      </trkpt>
      <trkpt lat="44.32523" lon="6.31194">
        <ele>1647.36</ele>
        <time>2022-04-19T12:15:08Z</time>
      </trkpt>
      <trkpt lat="44.32522" lon="6.31197">
        <ele>1649.76</ele>
        <time>2022-04-19T12:15:24Z</time>
      </trkpt>
      <trkpt lat="44.32522" lon="6.31198">
        <ele>1650.24</ele>
        <time>2022-04-19T12:15:54Z</time>
      </trkpt>
      <trkpt lat="44.32522" lon="6.31196">
        <ele>1649.28</ele>
        <time>2022-04-19T12:16:23Z</time>
      </trkpt>
      <trkpt lat="44.32525" lon="6.31178">
        <ele>1650.24</ele>
        <time>2022-04-19T12:16:38Z</time>
      </trkpt>
      <trkpt lat="44.32538" lon="6.31165">
        <ele>1651.2</ele>
        <time>2022-04-19T12:16:56Z</time>
      </trkpt>
      <trkpt lat="44.32545" lon="6.31158">
        <ele>1653.12</ele>
        <time>2022-04-19T12:17:05Z</time>
      </trkpt>
      <trkpt lat="44.32558" lon="6.31141">
        <ele>1655.53</ele>
        <time>2022-04-19T12:17:24Z</time>
      </trkpt>
      <trkpt lat="44.3257" lon="6.31124">
        <ele>1655.05</ele>
        <time>2022-04-19T12:17:42Z</time>
      </trkpt>
      <trkpt lat="44.32582" lon="6.31107">
        <ele>1656.97</ele>
        <time>2022-04-19T12:17:59Z</time>
      </trkpt>
      <trkpt lat="44.32593" lon="6.31093">
        <ele>1656.97</ele>
        <time>2022-04-19T12:18:15Z</time>
      </trkpt>
      <trkpt lat="44.326" lon="6.31086">
        <ele>1657.45</ele>
        <time>2022-04-19T12:18:31Z</time>
      </trkpt>
      <trkpt lat="44.32606" lon="6.31074">
        <ele>1659.37</ele>
        <time>2022-04-19T12:18:47Z</time>
      </trkpt>
      <trkpt lat="44.32618" lon="6.31056">
        <ele>1661.78</ele>
        <time>2022-04-19T12:19:07Z</time>
      </trkpt>
      <trkpt lat="44.32621" lon="6.31047">
        <ele>1661.78</ele>
        <time>2022-04-19T12:19:24Z</time>
      </trkpt>
      <trkpt lat="44.32626" lon="6.31032">
        <ele>1663.22</ele>
        <time>2022-04-19T12:19:41Z</time>
      </trkpt>
      <trkpt lat="44.32632" lon="6.31015">
        <ele>1666.1</ele>
        <time>2022-04-19T12:19:58Z</time>
      </trkpt>
      <trkpt lat="44.32638" lon="6.30998">
        <ele>1666.58</ele>
        <time>2022-04-19T12:20:14Z</time>
      </trkpt>
      <trkpt lat="44.32644" lon="6.30981">
        <ele>1666.58</ele>
        <time>2022-04-19T12:20:30Z</time>
      </trkpt>
      <trkpt lat="44.32649" lon="6.30964">
        <ele>1667.06</ele>
        <time>2022-04-19T12:20:46Z</time>
      </trkpt>
      <trkpt lat="44.32651" lon="6.30958">
        <ele>1666.58</ele>
        <time>2022-04-19T12:20:50Z</time>
      </trkpt>
      <trkpt lat="44.32654" lon="6.30942">
        <ele>1667.54</ele>
        <time>2022-04-19T12:21:04Z</time>
      </trkpt>
      <trkpt lat="44.32661" lon="6.30922">
        <ele>1669.47</ele>
        <time>2022-04-19T12:21:20Z</time>
      </trkpt>
      <trkpt lat="44.32667" lon="6.30907">
        <ele>1672.35</ele>
        <time>2022-04-19T12:21:36Z</time>
      </trkpt>
      <trkpt lat="44.32679" lon="6.30889">
        <ele>1671.39</ele>
        <time>2022-04-19T12:21:53Z</time>
      </trkpt>
      <trkpt lat="44.32695" lon="6.30873">
        <ele>1672.35</ele>
        <time>2022-04-19T12:22:12Z</time>
      </trkpt>
      <trkpt lat="44.32711" lon="6.30861">
        <ele>1673.31</ele>
        <time>2022-04-19T12:22:31Z</time>
      </trkpt>
      <trkpt lat="44.32721" lon="6.30856">
        <ele>1674.75</ele>
        <time>2022-04-19T12:22:45Z</time>
      </trkpt>
      <trkpt lat="44.32726" lon="6.30851">
        <ele>1674.75</ele>
        <time>2022-04-19T12:23:01Z</time>
      </trkpt>
      <trkpt lat="44.32739" lon="6.30837">
        <ele>1674.75</ele>
        <time>2022-04-19T12:23:18Z</time>
      </trkpt>
      <trkpt lat="44.3275" lon="6.30821">
        <ele>1674.75</ele>
        <time>2022-04-19T12:23:35Z</time>
      </trkpt>
      <trkpt lat="44.3276" lon="6.30806">
        <ele>1674.75</ele>
        <time>2022-04-19T12:23:51Z</time>
      </trkpt>
      <trkpt lat="44.32765" lon="6.30794">
        <ele>1676.2</ele>
        <time>2022-04-19T12:24:02Z</time>
      </trkpt>
      <trkpt lat="44.3277" lon="6.30775">
        <ele>1677.64</ele>
        <time>2022-04-19T12:24:17Z</time>
      </trkpt>
      <trkpt lat="44.32774" lon="6.30757">
        <ele>1679.08</ele>
        <time>2022-04-19T12:24:32Z</time>
      </trkpt>
      <trkpt lat="44.32781" lon="6.30738">
        <ele>1681.48</ele>
        <time>2022-04-19T12:24:49Z</time>
      </trkpt>
      <trkpt lat="44.32792" lon="6.30719">
        <ele>1682.44</ele>
        <time>2022-04-19T12:25:07Z</time>
      </trkpt>
      <trkpt lat="44.32806" lon="6.30703">
        <ele>1684.37</ele>
        <time>2022-04-19T12:25:24Z</time>
      </trkpt>
      <trkpt lat="44.32818" lon="6.30691">
        <ele>1685.33</ele>
        <time>2022-04-19T12:25:43Z</time>
      </trkpt>
      <trkpt lat="44.32819" lon="6.30691">
        <ele>1685.81</ele>
        <time>2022-04-19T12:26:03Z</time>
      </trkpt>
      <trkpt lat="44.32837" lon="6.30679">
        <ele>1686.29</ele>
        <time>2022-04-19T12:26:23Z</time>
      </trkpt>
      <trkpt lat="44.3285" lon="6.30666">
        <ele>1685.33</ele>
        <time>2022-04-19T12:26:40Z</time>
      </trkpt>
      <trkpt lat="44.32858" lon="6.30656">
        <ele>1684.85</ele>
        <time>2022-04-19T12:26:56Z</time>
      </trkpt>
      <trkpt lat="44.32874" lon="6.30638">
        <ele>1683.89</ele>
        <time>2022-04-19T12:27:16Z</time>
      </trkpt>
      <trkpt lat="44.3289" lon="6.30617">
        <ele>1681.96</ele>
        <time>2022-04-19T12:27:36Z</time>
      </trkpt>
      <trkpt lat="44.32907" lon="6.30595">
        <ele>1681.96</ele>
        <time>2022-04-19T12:27:57Z</time>
      </trkpt>
      <trkpt lat="44.32924" lon="6.30575">
        <ele>1681</ele>
        <time>2022-04-19T12:28:16Z</time>
      </trkpt>
      <trkpt lat="44.32944" lon="6.30554">
        <ele>1680.04</ele>
        <time>2022-04-19T12:28:38Z</time>
      </trkpt>
      <trkpt lat="44.3296" lon="6.30539">
        <ele>1679.08</ele>
        <time>2022-04-19T12:28:56Z</time>
      </trkpt>
      <trkpt lat="44.3298" lon="6.30525">
        <ele>1681</ele>
        <time>2022-04-19T12:29:15Z</time>
      </trkpt>
      <trkpt lat="44.32996" lon="6.30513">
        <ele>1680.52</ele>
        <time>2022-04-19T12:29:33Z</time>
      </trkpt>
      <trkpt lat="44.33012" lon="6.30497">
        <ele>1680.04</ele>
        <time>2022-04-19T12:29:51Z</time>
      </trkpt>
      <trkpt lat="44.33028" lon="6.3048">
        <ele>1680.04</ele>
        <time>2022-04-19T12:30:10Z</time>
      </trkpt>
      <trkpt lat="44.3304" lon="6.30464">
        <ele>1679.08</ele>
        <time>2022-04-19T12:30:27Z</time>
      </trkpt>
      <trkpt lat="44.33055" lon="6.30447">
        <ele>1678.12</ele>
        <time>2022-04-19T12:30:46Z</time>
      </trkpt>
      <trkpt lat="44.33071" lon="6.30426">
        <ele>1676.68</ele>
        <time>2022-04-19T12:31:06Z</time>
      </trkpt>
      <trkpt lat="44.33078" lon="6.30415">
        <ele>1674.75</ele>
        <time>2022-04-19T12:31:24Z</time>
      </trkpt>
      <trkpt lat="44.33078" lon="6.30416">
        <ele>1675.72</ele>
        <time>2022-04-19T12:31:51Z</time>
      </trkpt>
      <trkpt lat="44.33079" lon="6.30416">
        <ele>1676.68</ele>
        <time>2022-04-19T12:32:17Z</time>
      </trkpt>
      <trkpt lat="44.33079" lon="6.30407">
        <ele>1676.2</ele>
        <time>2022-04-19T12:32:32Z</time>
      </trkpt>
      <trkpt lat="44.33075" lon="6.3038">
        <ele>1673.79</ele>
        <time>2022-04-19T12:32:50Z</time>
      </trkpt>
      <trkpt lat="44.33069" lon="6.30365">
        <ele>1671.87</ele>
        <time>2022-04-19T12:33:01Z</time>
      </trkpt>
      <trkpt lat="44.33058" lon="6.30345">
        <ele>1668.02</ele>
        <time>2022-04-19T12:33:19Z</time>
      </trkpt>
      <trkpt lat="44.33047" lon="6.30329">
        <ele>1667.54</ele>
        <time>2022-04-19T12:33:33Z</time>
      </trkpt>
      <trkpt lat="44.33039" lon="6.30313">
        <ele>1666.1</ele>
        <time>2022-04-19T12:33:46Z</time>
      </trkpt>
      <trkpt lat="44.33036" lon="6.30301">
        <ele>1665.14</ele>
        <time>2022-04-19T12:33:55Z</time>
      </trkpt>
      <trkpt lat="44.33025" lon="6.30289">
        <ele>1663.7</ele>
        <time>2022-04-19T12:34:09Z</time>
      </trkpt>
      <trkpt lat="44.33024" lon="6.30289">
        <ele>1663.7</ele>
        <time>2022-04-19T12:34:10Z</time>
      </trkpt>
      <trkpt lat="44.33004" lon="6.30284">
        <ele>1665.14</ele>
        <time>2022-04-19T12:34:28Z</time>
      </trkpt>
      <trkpt lat="44.32983" lon="6.30283">
        <ele>1666.58</ele>
        <time>2022-04-19T12:34:46Z</time>
      </trkpt>
      <trkpt lat="44.32968" lon="6.30283">
        <ele>1667.06</ele>
        <time>2022-04-19T12:35:00Z</time>
      </trkpt>
      <trkpt lat="44.32952" lon="6.30284">
        <ele>1668.02</ele>
        <time>2022-04-19T12:35:15Z</time>
      </trkpt>
      <trkpt lat="44.32933" lon="6.30284">
        <ele>1669.47</ele>
        <time>2022-04-19T12:35:32Z</time>
      </trkpt>
      <trkpt lat="44.32916" lon="6.30278">
        <ele>1668.51</ele>
        <time>2022-04-19T12:35:49Z</time>
      </trkpt>
      <trkpt lat="44.32893" lon="6.30267">
        <ele>1668.02</ele>
        <time>2022-04-19T12:36:09Z</time>
      </trkpt>
      <trkpt lat="44.32881" lon="6.30256">
        <ele>1668.99</ele>
        <time>2022-04-19T12:36:23Z</time>
      </trkpt>
      <trkpt lat="44.3287" lon="6.30243">
        <ele>1670.91</ele>
        <time>2022-04-19T12:36:36Z</time>
      </trkpt>
      <trkpt lat="44.32855" lon="6.30229">
        <ele>1669.95</ele>
        <time>2022-04-19T12:36:53Z</time>
      </trkpt>
      <trkpt lat="44.32842" lon="6.30214">
        <ele>1667.06</ele>
        <time>2022-04-19T12:37:08Z</time>
      </trkpt>
      <trkpt lat="44.32829" lon="6.30193">
        <ele>1665.14</ele>
        <time>2022-04-19T12:37:25Z</time>
      </trkpt>
      <trkpt lat="44.32819" lon="6.30176">
        <ele>1663.7</ele>
        <time>2022-04-19T12:37:40Z</time>
      </trkpt>
      <trkpt lat="44.32812" lon="6.30152">
        <ele>1661.78</ele>
        <time>2022-04-19T12:37:58Z</time>
      </trkpt>
      <trkpt lat="44.32811" lon="6.30146">
        <ele>1661.3</ele>
        <time>2022-04-19T12:38:02Z</time>
      </trkpt>
      <trkpt lat="44.32813" lon="6.30123">
        <ele>1660.81</ele>
        <time>2022-04-19T12:38:17Z</time>
      </trkpt>
      <trkpt lat="44.32812" lon="6.30105">
        <ele>1659.37</ele>
        <time>2022-04-19T12:38:31Z</time>
      </trkpt>
      <trkpt lat="44.32813" lon="6.30083">
        <ele>1658.41</ele>
        <time>2022-04-19T12:38:46Z</time>
      </trkpt>
      <trkpt lat="44.32825" lon="6.30063">
        <ele>1656.97</ele>
        <time>2022-04-19T12:39:04Z</time>
      </trkpt>
      <trkpt lat="44.32828" lon="6.30057">
        <ele>1655.53</ele>
        <time>2022-04-19T12:39:20Z</time>
      </trkpt>
      <trkpt lat="44.3283" lon="6.30044">
        <ele>1654.57</ele>
        <time>2022-04-19T12:39:33Z</time>
      </trkpt>
      <trkpt lat="44.32824" lon="6.30036">
        <ele>1656.01</ele>
        <time>2022-04-19T12:39:46Z</time>
      </trkpt>
      <trkpt lat="44.32821" lon="6.30034">
        <ele>1656.49</ele>
        <time>2022-04-19T12:39:50Z</time>
      </trkpt>
      <trkpt lat="44.32812" lon="6.3002">
        <ele>1658.89</ele>
        <time>2022-04-19T12:40:05Z</time>
      </trkpt>
      <trkpt lat="44.32804" lon="6.30015">
        <ele>1660.33</ele>
        <time>2022-04-19T12:40:21Z</time>
      </trkpt>
      <trkpt lat="44.32791" lon="6.30018">
        <ele>1660.81</ele>
        <time>2022-04-19T12:40:36Z</time>
      </trkpt>
      <trkpt lat="44.32777" lon="6.30025">
        <ele>1662.26</ele>
        <time>2022-04-19T12:40:53Z</time>
      </trkpt>
      <trkpt lat="44.32776" lon="6.30026">
        <ele>1662.26</ele>
        <time>2022-04-19T12:40:55Z</time>
      </trkpt>
      <trkpt lat="44.32765" lon="6.30043">
        <ele>1662.26</ele>
        <time>2022-04-19T12:41:13Z</time>
      </trkpt>
      <trkpt lat="44.32756" lon="6.30058">
        <ele>1662.26</ele>
        <time>2022-04-19T12:41:28Z</time>
      </trkpt>
      <trkpt lat="44.3274" lon="6.30069">
        <ele>1663.22</ele>
        <time>2022-04-19T12:41:46Z</time>
      </trkpt>
      <trkpt lat="44.32726" lon="6.30062">
        <ele>1666.1</ele>
        <time>2022-04-19T12:42:01Z</time>
      </trkpt>
      <trkpt lat="44.32715" lon="6.30049">
        <ele>1669.47</ele>
        <time>2022-04-19T12:42:19Z</time>
      </trkpt>
      <trkpt lat="44.32711" lon="6.30038">
        <ele>1670.43</ele>
        <time>2022-04-19T12:42:34Z</time>
      </trkpt>
      <trkpt lat="44.32708" lon="6.30027">
        <ele>1671.39</ele>
        <time>2022-04-19T12:42:53Z</time>
      </trkpt>
      <trkpt lat="44.32707" lon="6.30025">
        <ele>1671.39</ele>
        <time>2022-04-19T12:42:55Z</time>
      </trkpt>
      <trkpt lat="44.32699" lon="6.30006">
        <ele>1674.27</ele>
        <time>2022-04-19T12:43:12Z</time>
      </trkpt>
      <trkpt lat="44.3269" lon="6.29991">
        <ele>1675.23</ele>
        <time>2022-04-19T12:43:28Z</time>
      </trkpt>
      <trkpt lat="44.32686" lon="6.29971">
        <ele>1675.23</ele>
        <time>2022-04-19T12:43:44Z</time>
      </trkpt>
      <trkpt lat="44.32689" lon="6.29958">
        <ele>1673.79</ele>
        <time>2022-04-19T12:43:54Z</time>
      </trkpt>
      <trkpt lat="44.32697" lon="6.29939">
        <ele>1672.83</ele>
        <time>2022-04-19T12:44:10Z</time>
      </trkpt>
      <trkpt lat="44.32688" lon="6.29925">
        <ele>1674.75</ele>
        <time>2022-04-19T12:44:25Z</time>
      </trkpt>
      <trkpt lat="44.32674" lon="6.29931">
        <ele>1676.68</ele>
        <time>2022-04-19T12:44:40Z</time>
      </trkpt>
      <trkpt lat="44.32658" lon="6.2994">
        <ele>1679.56</ele>
        <time>2022-04-19T12:44:58Z</time>
      </trkpt>
      <trkpt lat="44.32644" lon="6.29951">
        <ele>1682.44</ele>
        <time>2022-04-19T12:45:15Z</time>
      </trkpt>
      <trkpt lat="44.32643" lon="6.29954">
        <ele>1682.44</ele>
        <time>2022-04-19T12:45:32Z</time>
      </trkpt>
      <trkpt lat="44.32637" lon="6.29958">
        <ele>1682.44</ele>
        <time>2022-04-19T12:45:51Z</time>
      </trkpt>
      <trkpt lat="44.32624" lon="6.29968">
        <ele>1684.37</ele>
        <time>2022-04-19T12:46:08Z</time>
      </trkpt>
      <trkpt lat="44.32613" lon="6.29983">
        <ele>1685.81</ele>
        <time>2022-04-19T12:46:24Z</time>
      </trkpt>
      <trkpt lat="44.32609" lon="6.2999">
        <ele>1687.25</ele>
        <time>2022-04-19T12:46:39Z</time>
      </trkpt>
      <trkpt lat="44.32605" lon="6.29992">
        <ele>1687.25</ele>
        <time>2022-04-19T12:46:50Z</time>
      </trkpt>
      <trkpt lat="44.32592" lon="6.29995">
        <ele>1689.17</ele>
        <time>2022-04-19T12:47:04Z</time>
      </trkpt>
      <trkpt lat="44.32587" lon="6.29998">
        <ele>1689.65</ele>
        <time>2022-04-19T12:47:09Z</time>
      </trkpt>
      <trkpt lat="44.32573" lon="6.30007">
        <ele>1691.1</ele>
        <time>2022-04-19T12:47:26Z</time>
      </trkpt>
      <trkpt lat="44.32566" lon="6.30011">
        <ele>1692.54</ele>
        <time>2022-04-19T12:47:42Z</time>
      </trkpt>
      <trkpt lat="44.32551" lon="6.30024">
        <ele>1694.46</ele>
        <time>2022-04-19T12:47:59Z</time>
      </trkpt>
      <trkpt lat="44.32549" lon="6.30025">
        <ele>1695.42</ele>
        <time>2022-04-19T12:48:19Z</time>
      </trkpt>
      <trkpt lat="44.32547" lon="6.30027">
        <ele>1695.9</ele>
        <time>2022-04-19T12:48:37Z</time>
      </trkpt>
      <trkpt lat="44.32539" lon="6.30037">
        <ele>1696.86</ele>
        <time>2022-04-19T12:48:56Z</time>
      </trkpt>
      <trkpt lat="44.32526" lon="6.30049">
        <ele>1698.79</ele>
        <time>2022-04-19T12:49:11Z</time>
      </trkpt>
      <trkpt lat="44.32513" lon="6.30059">
        <ele>1700.71</ele>
        <time>2022-04-19T12:49:26Z</time>
      </trkpt>
      <trkpt lat="44.3251" lon="6.30061">
        <ele>1701.19</ele>
        <time>2022-04-19T12:49:33Z</time>
      </trkpt>
      <trkpt lat="44.32498" lon="6.30076">
        <ele>1704.07</ele>
        <time>2022-04-19T12:49:50Z</time>
      </trkpt>
      <trkpt lat="44.32488" lon="6.30087">
        <ele>1705.52</ele>
        <time>2022-04-19T12:50:06Z</time>
      </trkpt>
      <trkpt lat="44.32481" lon="6.30095">
        <ele>1706.96</ele>
        <time>2022-04-19T12:50:28Z</time>
      </trkpt>
      <trkpt lat="44.3247" lon="6.30104">
        <ele>1708.4</ele>
        <time>2022-04-19T12:50:44Z</time>
      </trkpt>
      <trkpt lat="44.32456" lon="6.30119">
        <ele>1709.36</ele>
        <time>2022-04-19T12:51:04Z</time>
      </trkpt>
      <trkpt lat="44.32454" lon="6.30123">
        <ele>1709.84</ele>
        <time>2022-04-19T12:51:23Z</time>
      </trkpt>
      <trkpt lat="44.32444" lon="6.30134">
        <ele>1711.28</ele>
        <time>2022-04-19T12:51:39Z</time>
      </trkpt>
      <trkpt lat="44.32427" lon="6.30147">
        <ele>1711.76</ele>
        <time>2022-04-19T12:51:57Z</time>
      </trkpt>
      <trkpt lat="44.32423" lon="6.30147">
        <ele>1713.21</ele>
        <time>2022-04-19T12:52:13Z</time>
      </trkpt>
      <trkpt lat="44.32422" lon="6.30147">
        <ele>1714.17</ele>
        <time>2022-04-19T12:52:38Z</time>
      </trkpt>
      <trkpt lat="44.32422" lon="6.30147">
        <ele>1714.65</ele>
        <time>2022-04-19T12:52:55Z</time>
      </trkpt>
      <trkpt lat="44.32422" lon="6.30147">
        <ele>1714.65</ele>
        <time>2022-04-19T12:53:13Z</time>
      </trkpt>
      <trkpt lat="44.32422" lon="6.30147">
        <ele>1714.65</ele>
        <time>2022-04-19T12:53:35Z</time>
      </trkpt>
      <trkpt lat="44.32422" lon="6.30147">
        <ele>1714.65</ele>
        <time>2022-04-19T12:54:10Z</time>
      </trkpt>
      <trkpt lat="44.32423" lon="6.30146">
        <ele>1713.69</ele>
        <time>2022-04-19T12:54:43Z</time>
      </trkpt>
      <trkpt lat="44.32423" lon="6.30147">
        <ele>1713.21</ele>
        <time>2022-04-19T12:55:12Z</time>
      </trkpt>
      <trkpt lat="44.32423" lon="6.30147">
        <ele>1713.21</ele>
        <time>2022-04-19T12:55:34Z</time>
      </trkpt>
      <trkpt lat="44.32423" lon="6.30146">
        <ele>1714.17</ele>
        <time>2022-04-19T12:56:07Z</time>
      </trkpt>
      <trkpt lat="44.32418" lon="6.30145">
        <ele>1714.17</ele>
        <time>2022-04-19T12:56:25Z</time>
      </trkpt>
      <trkpt lat="44.32415" lon="6.30145">
        <ele>1714.65</ele>
        <time>2022-04-19T12:56:46Z</time>
      </trkpt>
      <trkpt lat="44.32414" lon="6.30143">
        <ele>1714.65</ele>
        <time>2022-04-19T12:56:50Z</time>
      </trkpt>
      <trkpt lat="44.32412" lon="6.30138">
        <ele>1716.09</ele>
        <time>2022-04-19T12:57:04Z</time>
      </trkpt>
      <trkpt lat="44.32412" lon="6.30138">
        <ele>1716.57</ele>
        <time>2022-04-19T12:57:45Z</time>
      </trkpt>
      <trkpt lat="44.32412" lon="6.30138">
        <ele>1717.05</ele>
        <time>2022-04-19T12:58:15Z</time>
      </trkpt>
      <trkpt lat="44.32413" lon="6.30134">
        <ele>1717.05</ele>
        <time>2022-04-19T12:58:31Z</time>
      </trkpt>
      <trkpt lat="44.32412" lon="6.30135">
        <ele>1717.05</ele>
        <time>2022-04-19T12:58:51Z</time>
      </trkpt>
      <trkpt lat="44.32411" lon="6.30136">
        <ele>1717.53</ele>
        <time>2022-04-19T12:59:23Z</time>
      </trkpt>
      <trkpt lat="44.32412" lon="6.30137">
        <ele>1717.53</ele>
        <time>2022-04-19T12:59:40Z</time>
      </trkpt>
      <trkpt lat="44.32413" lon="6.30138">
        <ele>1717.53</ele>
        <time>2022-04-19T12:59:41Z</time>
      </trkpt>
      <trkpt lat="44.32422" lon="6.30146">
        <ele>1716.57</ele>
        <time>2022-04-19T12:59:55Z</time>
      </trkpt>
      <trkpt lat="44.32422" lon="6.30145">
        <ele>1717.05</ele>
        <time>2022-04-19T13:00:29Z</time>
      </trkpt>
      <trkpt lat="44.32421" lon="6.30145">
        <ele>1717.05</ele>
        <time>2022-04-19T13:01:02Z</time>
      </trkpt>
      <trkpt lat="44.32421" lon="6.30145">
        <ele>1717.05</ele>
        <time>2022-04-19T13:01:29Z</time>
      </trkpt>
      <trkpt lat="44.32421" lon="6.30145">
        <ele>1717.53</ele>
        <time>2022-04-19T13:01:58Z</time>
      </trkpt>
      <trkpt lat="44.32421" lon="6.30145">
        <ele>1717.05</ele>
        <time>2022-04-19T13:02:30Z</time>
      </trkpt>
      <trkpt lat="44.32421" lon="6.30145">
        <ele>1717.05</ele>
        <time>2022-04-19T13:02:52Z</time>
      </trkpt>
      <trkpt lat="44.32421" lon="6.30145">
        <ele>1717.05</ele>
        <time>2022-04-19T13:03:11Z</time>
      </trkpt>
      <trkpt lat="44.32421" lon="6.30146">
        <ele>1716.57</ele>
        <time>2022-04-19T13:03:39Z</time>
      </trkpt>
      <trkpt lat="44.32419" lon="6.30138">
        <ele>1716.57</ele>
        <time>2022-04-19T13:03:52Z</time>
      </trkpt>
      <trkpt lat="44.32419" lon="6.30135">
        <ele>1716.57</ele>
        <time>2022-04-19T13:03:54Z</time>
      </trkpt>
      <trkpt lat="44.32418" lon="6.30129">
        <ele>1716.57</ele>
        <time>2022-04-19T13:03:59Z</time>
      </trkpt>
      <trkpt lat="44.32422" lon="6.30111">
        <ele>1716.57</ele>
        <time>2022-04-19T13:04:13Z</time>
      </trkpt>
      <trkpt lat="44.32433" lon="6.3009">
        <ele>1717.05</ele>
        <time>2022-04-19T13:04:30Z</time>
      </trkpt>
      <trkpt lat="44.32438" lon="6.30068">
        <ele>1717.05</ele>
        <time>2022-04-19T13:04:45Z</time>
      </trkpt>
      <trkpt lat="44.32443" lon="6.30041">
        <ele>1716.09</ele>
        <time>2022-04-19T13:05:02Z</time>
      </trkpt>
      <trkpt lat="44.32451" lon="6.30015">
        <ele>1715.13</ele>
        <time>2022-04-19T13:05:19Z</time>
      </trkpt>
      <trkpt lat="44.32462" lon="6.29989">
        <ele>1715.61</ele>
        <time>2022-04-19T13:05:36Z</time>
      </trkpt>
      <trkpt lat="44.3247" lon="6.29968">
        <ele>1714.65</ele>
        <time>2022-04-19T13:05:50Z</time>
      </trkpt>
      <trkpt lat="44.32478" lon="6.29944">
        <ele>1714.65</ele>
        <time>2022-04-19T13:06:07Z</time>
      </trkpt>
      <trkpt lat="44.3248" lon="6.29937">
        <ele>1715.13</ele>
        <time>2022-04-19T13:06:21Z</time>
      </trkpt>
      <trkpt lat="44.32488" lon="6.29918">
        <ele>1715.61</ele>
        <time>2022-04-19T13:06:36Z</time>
      </trkpt>
      <trkpt lat="44.32497" lon="6.29895">
        <ele>1718.01</ele>
        <time>2022-04-19T13:06:53Z</time>
      </trkpt>
      <trkpt lat="44.32506" lon="6.29875">
        <ele>1718.97</ele>
        <time>2022-04-19T13:07:08Z</time>
      </trkpt>
      <trkpt lat="44.32512" lon="6.29854">
        <ele>1719.94</ele>
        <time>2022-04-19T13:07:22Z</time>
      </trkpt>
      <trkpt lat="44.32521" lon="6.29833">
        <ele>1721.86</ele>
        <time>2022-04-19T13:07:37Z</time>
      </trkpt>
      <trkpt lat="44.32525" lon="6.29811">
        <ele>1723.78</ele>
        <time>2022-04-19T13:07:53Z</time>
      </trkpt>
      <trkpt lat="44.32529" lon="6.29785">
        <ele>1725.22</ele>
        <time>2022-04-19T13:08:10Z</time>
      </trkpt>
      <trkpt lat="44.32532" lon="6.29763">
        <ele>1726.18</ele>
        <time>2022-04-19T13:08:26Z</time>
      </trkpt>
      <trkpt lat="44.32534" lon="6.2975">
        <ele>1727.15</ele>
        <time>2022-04-19T13:08:42Z</time>
      </trkpt>
      <trkpt lat="44.32536" lon="6.29738">
        <ele>1727.63</ele>
        <time>2022-04-19T13:09:03Z</time>
      </trkpt>
      <trkpt lat="44.32538" lon="6.29728">
        <ele>1728.11</ele>
        <time>2022-04-19T13:09:10Z</time>
      </trkpt>
      <trkpt lat="44.32542" lon="6.29704">
        <ele>1730.99</ele>
        <time>2022-04-19T13:09:26Z</time>
      </trkpt>
      <trkpt lat="44.32545" lon="6.29681">
        <ele>1732.43</ele>
        <time>2022-04-19T13:09:42Z</time>
      </trkpt>
      <trkpt lat="44.32549" lon="6.29656">
        <ele>1735.32</ele>
        <time>2022-04-19T13:10:00Z</time>
      </trkpt>
      <trkpt lat="44.32551" lon="6.29637">
        <ele>1737.24</ele>
        <time>2022-04-19T13:10:14Z</time>
      </trkpt>
      <trkpt lat="44.32554" lon="6.2962">
        <ele>1737.24</ele>
        <time>2022-04-19T13:10:27Z</time>
      </trkpt>
      <trkpt lat="44.32554" lon="6.2961">
        <ele>1738.68</ele>
        <time>2022-04-19T13:10:42Z</time>
      </trkpt>
      <trkpt lat="44.32554" lon="6.29609">
        <ele>1738.68</ele>
        <time>2022-04-19T13:10:43Z</time>
      </trkpt>
      <trkpt lat="44.3255" lon="6.29599">
        <ele>1739.64</ele>
        <time>2022-04-19T13:10:52Z</time>
      </trkpt>
      <trkpt lat="44.32556" lon="6.29593">
        <ele>1740.6</ele>
        <time>2022-04-19T13:11:11Z</time>
      </trkpt>
      <trkpt lat="44.32557" lon="6.29594">
        <ele>1741.08</ele>
        <time>2022-04-19T13:11:31Z</time>
      </trkpt>
      <trkpt lat="44.32557" lon="6.29593">
        <ele>1741.08</ele>
        <time>2022-04-19T13:11:57Z</time>
      </trkpt>
      <trkpt lat="44.32557" lon="6.29587">
        <ele>1741.08</ele>
        <time>2022-04-19T13:12:01Z</time>
      </trkpt>
      <trkpt lat="44.32558" lon="6.29564">
        <ele>1741.57</ele>
        <time>2022-04-19T13:12:18Z</time>
      </trkpt>
      <trkpt lat="44.32559" lon="6.29542">
        <ele>1742.05</ele>
        <time>2022-04-19T13:12:34Z</time>
      </trkpt>
      <trkpt lat="44.32566" lon="6.29525">
        <ele>1742.53</ele>
        <time>2022-04-19T13:12:49Z</time>
      </trkpt>
      <trkpt lat="44.32567" lon="6.29514">
        <ele>1743.97</ele>
        <time>2022-04-19T13:13:02Z</time>
      </trkpt>
      <trkpt lat="44.32571" lon="6.29494">
        <ele>1745.89</ele>
        <time>2022-04-19T13:13:17Z</time>
      </trkpt>
      <trkpt lat="44.32576" lon="6.29474">
        <ele>1747.81</ele>
        <time>2022-04-19T13:13:34Z</time>
      </trkpt>
      <trkpt lat="44.3258" lon="6.29449">
        <ele>1749.26</ele>
        <time>2022-04-19T13:13:53Z</time>
      </trkpt>
      <trkpt lat="44.32585" lon="6.2943">
        <ele>1750.7</ele>
        <time>2022-04-19T13:14:08Z</time>
      </trkpt>
      <trkpt lat="44.32589" lon="6.29409">
        <ele>1753.1</ele>
        <time>2022-04-19T13:14:25Z</time>
      </trkpt>
      <trkpt lat="44.3259" lon="6.29403">
        <ele>1753.58</ele>
        <time>2022-04-19T13:14:30Z</time>
      </trkpt>
      <trkpt lat="44.32587" lon="6.29385">
        <ele>1755.02</ele>
        <time>2022-04-19T13:14:44Z</time>
      </trkpt>
      <trkpt lat="44.32583" lon="6.29369">
        <ele>1756.47</ele>
        <time>2022-04-19T13:14:59Z</time>
      </trkpt>
      <trkpt lat="44.32584" lon="6.29349">
        <ele>1759.83</ele>
        <time>2022-04-19T13:15:15Z</time>
      </trkpt>
      <trkpt lat="44.32587" lon="6.29336">
        <ele>1763.2</ele>
        <time>2022-04-19T13:15:30Z</time>
      </trkpt>
      <trkpt lat="44.32592" lon="6.29326">
        <ele>1766.08</ele>
        <time>2022-04-19T13:15:46Z</time>
      </trkpt>
      <trkpt lat="44.32594" lon="6.29324">
        <ele>1767.52</ele>
        <time>2022-04-19T13:16:02Z</time>
      </trkpt>
      <trkpt lat="44.32595" lon="6.29319">
        <ele>1768.96</ele>
        <time>2022-04-19T13:16:27Z</time>
      </trkpt>
      <trkpt lat="44.32596" lon="6.29313">
        <ele>1768.48</ele>
        <time>2022-04-19T13:16:34Z</time>
      </trkpt>
      <trkpt lat="44.32594" lon="6.29308">
        <ele>1769.44</ele>
        <time>2022-04-19T13:16:44Z</time>
      </trkpt>
      <trkpt lat="44.32593" lon="6.29308">
        <ele>1768.96</ele>
        <time>2022-04-19T13:17:01Z</time>
      </trkpt>
      <trkpt lat="44.32593" lon="6.29309">
        <ele>1768.48</ele>
        <time>2022-04-19T13:17:21Z</time>
      </trkpt>
      <trkpt lat="44.32591" lon="6.29307">
        <ele>1768</ele>
        <time>2022-04-19T13:17:39Z</time>
      </trkpt>
      <trkpt lat="44.32591" lon="6.29307">
        <ele>1768</ele>
        <time>2022-04-19T13:18:10Z</time>
      </trkpt>
      <trkpt lat="44.32592" lon="6.29307">
        <ele>1767.52</ele>
        <time>2022-04-19T13:18:37Z</time>
      </trkpt>
      <trkpt lat="44.32592" lon="6.29307">
        <ele>1767.52</ele>
        <time>2022-04-19T13:19:12Z</time>
      </trkpt>
      <trkpt lat="44.32592" lon="6.29307">
        <ele>1767.52</ele>
        <time>2022-04-19T13:19:40Z</time>
      </trkpt>
      <trkpt lat="44.32592" lon="6.29307">
        <ele>1767.52</ele>
        <time>2022-04-19T13:20:10Z</time>
      </trkpt>
      <trkpt lat="44.32592" lon="6.29307">
        <ele>1768</ele>
        <time>2022-04-19T13:20:41Z</time>
      </trkpt>
      <trkpt lat="44.32591" lon="6.29307">
        <ele>1768.96</ele>
        <time>2022-04-19T13:21:16Z</time>
      </trkpt>
      <trkpt lat="44.32591" lon="6.29308">
        <ele>1769.44</ele>
        <time>2022-04-19T13:21:35Z</time>
      </trkpt>
      <trkpt lat="44.32592" lon="6.29308">
        <ele>1769.44</ele>
        <time>2022-04-19T13:21:54Z</time>
      </trkpt>
      <trkpt lat="44.3259" lon="6.29307">
        <ele>1768.96</ele>
        <time>2022-04-19T13:22:21Z</time>
      </trkpt>
      <trkpt lat="44.32589" lon="6.29308">
        <ele>1768.48</ele>
        <time>2022-04-19T13:22:47Z</time>
      </trkpt>
      <trkpt lat="44.32589" lon="6.29308">
        <ele>1768.96</ele>
        <time>2022-04-19T13:23:05Z</time>
      </trkpt>
      <trkpt lat="44.32589" lon="6.29307">
        <ele>1768.96</ele>
        <time>2022-04-19T13:23:30Z</time>
      </trkpt>
      <trkpt lat="44.32589" lon="6.29307">
        <ele>1768.48</ele>
        <time>2022-04-19T13:24:01Z</time>
      </trkpt>
      <trkpt lat="44.32592" lon="6.29316">
        <ele>1766.56</ele>
        <time>2022-04-19T13:24:21Z</time>
      </trkpt>
      <trkpt lat="44.32592" lon="6.29317">
        <ele>1766.56</ele>
        <time>2022-04-19T13:24:22Z</time>
      </trkpt>
      <trkpt lat="44.32587" lon="6.29331">
        <ele>1761.75</ele>
        <time>2022-04-19T13:24:40Z</time>
      </trkpt>
      <trkpt lat="44.32588" lon="6.29335">
        <ele>1761.75</ele>
        <time>2022-04-19T13:24:55Z</time>
      </trkpt>
      <trkpt lat="44.32588" lon="6.29336">
        <ele>1761.27</ele>
        <time>2022-04-19T13:25:12Z</time>
      </trkpt>
      <trkpt lat="44.32588" lon="6.2935">
        <ele>1760.31</ele>
        <time>2022-04-19T13:25:27Z</time>
      </trkpt>
      <trkpt lat="44.32588" lon="6.29366">
        <ele>1758.39</ele>
        <time>2022-04-19T13:25:43Z</time>
      </trkpt>
      <trkpt lat="44.32589" lon="6.29379">
        <ele>1755.99</ele>
        <time>2022-04-19T13:25:55Z</time>
      </trkpt>
      <trkpt lat="44.32588" lon="6.29381">
        <ele>1755.99</ele>
        <time>2022-04-19T13:25:57Z</time>
      </trkpt>
      <trkpt lat="44.32589" lon="6.29403">
        <ele>1756.47</ele>
        <time>2022-04-19T13:26:15Z</time>
      </trkpt>
      <trkpt lat="44.32589" lon="6.29405">
        <ele>1756.47</ele>
        <time>2022-04-19T13:26:17Z</time>
      </trkpt>
      <trkpt lat="44.32586" lon="6.29427">
        <ele>1754.54</ele>
        <time>2022-04-19T13:26:33Z</time>
      </trkpt>
      <trkpt lat="44.32581" lon="6.29447">
        <ele>1752.14</ele>
        <time>2022-04-19T13:26:50Z</time>
      </trkpt>
      <trkpt lat="44.32579" lon="6.29453">
        <ele>1751.66</ele>
        <time>2022-04-19T13:26:55Z</time>
      </trkpt>
      <trkpt lat="44.32574" lon="6.29476">
        <ele>1749.74</ele>
        <time>2022-04-19T13:27:12Z</time>
      </trkpt>
      <trkpt lat="44.32569" lon="6.29494">
        <ele>1747.33</ele>
        <time>2022-04-19T13:27:27Z</time>
      </trkpt>
      <trkpt lat="44.32566" lon="6.29514">
        <ele>1745.41</ele>
        <time>2022-04-19T13:27:42Z</time>
      </trkpt>
      <trkpt lat="44.3256" lon="6.29535">
        <ele>1743.49</ele>
        <time>2022-04-19T13:27:59Z</time>
      </trkpt>
      <trkpt lat="44.32556" lon="6.29561">
        <ele>1743.01</ele>
        <time>2022-04-19T13:28:15Z</time>
      </trkpt>
      <trkpt lat="44.32554" lon="6.29586">
        <ele>1741.08</ele>
        <time>2022-04-19T13:28:31Z</time>
      </trkpt>
      <trkpt lat="44.32555" lon="6.29608">
        <ele>1740.12</ele>
        <time>2022-04-19T13:28:45Z</time>
      </trkpt>
      <trkpt lat="44.32552" lon="6.29628">
        <ele>1737.24</ele>
        <time>2022-04-19T13:28:59Z</time>
      </trkpt>
      <trkpt lat="44.3255" lon="6.29649">
        <ele>1734.36</ele>
        <time>2022-04-19T13:29:14Z</time>
      </trkpt>
      <trkpt lat="44.32547" lon="6.29672">
        <ele>1731.95</ele>
        <time>2022-04-19T13:29:30Z</time>
      </trkpt>
      <trkpt lat="44.32544" lon="6.29697">
        <ele>1730.03</ele>
        <time>2022-04-19T13:29:47Z</time>
      </trkpt>
      <trkpt lat="44.32541" lon="6.2972">
        <ele>1729.55</ele>
        <time>2022-04-19T13:30:02Z</time>
      </trkpt>
      <trkpt lat="44.32537" lon="6.29742">
        <ele>1728.59</ele>
        <time>2022-04-19T13:30:17Z</time>
      </trkpt>
      <trkpt lat="44.32533" lon="6.29763">
        <ele>1727.63</ele>
        <time>2022-04-19T13:30:32Z</time>
      </trkpt>
      <trkpt lat="44.32528" lon="6.29788">
        <ele>1726.18</ele>
        <time>2022-04-19T13:30:50Z</time>
      </trkpt>
      <trkpt lat="44.32524" lon="6.29812">
        <ele>1725.22</ele>
        <time>2022-04-19T13:31:05Z</time>
      </trkpt>
      <trkpt lat="44.32517" lon="6.29837">
        <ele>1723.3</ele>
        <time>2022-04-19T13:31:24Z</time>
      </trkpt>
      <trkpt lat="44.32511" lon="6.29858">
        <ele>1722.34</ele>
        <time>2022-04-19T13:31:39Z</time>
      </trkpt>
      <trkpt lat="44.32505" lon="6.29879">
        <ele>1720.42</ele>
        <time>2022-04-19T13:31:55Z</time>
      </trkpt>
      <trkpt lat="44.32498" lon="6.29897">
        <ele>1718.49</ele>
        <time>2022-04-19T13:32:09Z</time>
      </trkpt>
      <trkpt lat="44.3249" lon="6.29917">
        <ele>1717.05</ele>
        <time>2022-04-19T13:32:25Z</time>
      </trkpt>
      <trkpt lat="44.32481" lon="6.29939">
        <ele>1716.09</ele>
        <time>2022-04-19T13:32:41Z</time>
      </trkpt>
      <trkpt lat="44.32472" lon="6.29963">
        <ele>1713.69</ele>
        <time>2022-04-19T13:32:59Z</time>
      </trkpt>
      <trkpt lat="44.32462" lon="6.29987">
        <ele>1714.17</ele>
        <time>2022-04-19T13:33:16Z</time>
      </trkpt>
      <trkpt lat="44.32452" lon="6.30012">
        <ele>1715.13</ele>
        <time>2022-04-19T13:33:36Z</time>
      </trkpt>
      <trkpt lat="44.32449" lon="6.30026">
        <ele>1716.09</ele>
        <time>2022-04-19T13:33:52Z</time>
      </trkpt>
      <trkpt lat="44.32444" lon="6.30046">
        <ele>1718.01</ele>
        <time>2022-04-19T13:34:07Z</time>
      </trkpt>
      <trkpt lat="44.32442" lon="6.30059">
        <ele>1718.49</ele>
        <time>2022-04-19T13:34:22Z</time>
      </trkpt>
      <trkpt lat="44.32438" lon="6.3008">
        <ele>1718.97</ele>
        <time>2022-04-19T13:34:37Z</time>
      </trkpt>
      <trkpt lat="44.32436" lon="6.30084">
        <ele>1718.49</ele>
        <time>2022-04-19T13:34:40Z</time>
      </trkpt>
      <trkpt lat="44.32426" lon="6.30106">
        <ele>1718.49</ele>
        <time>2022-04-19T13:34:58Z</time>
      </trkpt>
      <trkpt lat="44.32418" lon="6.30127">
        <ele>1718.49</ele>
        <time>2022-04-19T13:35:17Z</time>
      </trkpt>
      <trkpt lat="44.3242" lon="6.30145">
        <ele>1716.57</ele>
        <time>2022-04-19T13:35:33Z</time>
      </trkpt>
      <trkpt lat="44.32424" lon="6.30148">
        <ele>1716.09</ele>
        <time>2022-04-19T13:35:38Z</time>
      </trkpt>
      <trkpt lat="44.32433" lon="6.30149">
        <ele>1715.13</ele>
        <time>2022-04-19T13:35:53Z</time>
      </trkpt>
      <trkpt lat="44.32437" lon="6.30146">
        <ele>1714.65</ele>
        <time>2022-04-19T13:36:08Z</time>
      </trkpt>
      <trkpt lat="44.32454" lon="6.30128">
        <ele>1713.69</ele>
        <time>2022-04-19T13:36:27Z</time>
      </trkpt>
      <trkpt lat="44.3247" lon="6.3011">
        <ele>1712.25</ele>
        <time>2022-04-19T13:36:45Z</time>
      </trkpt>
      <trkpt lat="44.32485" lon="6.30095">
        <ele>1709.84</ele>
        <time>2022-04-19T13:37:02Z</time>
      </trkpt>
      <trkpt lat="44.32499" lon="6.30078">
        <ele>1706.48</ele>
        <time>2022-04-19T13:37:19Z</time>
      </trkpt>
      <trkpt lat="44.32513" lon="6.30065">
        <ele>1704.07</ele>
        <time>2022-04-19T13:37:37Z</time>
      </trkpt>
      <trkpt lat="44.32513" lon="6.30065">
        <ele>1703.59</ele>
        <time>2022-04-19T13:37:55Z</time>
      </trkpt>
      <trkpt lat="44.32513" lon="6.30064">
        <ele>1703.59</ele>
        <time>2022-04-19T13:38:27Z</time>
      </trkpt>
      <trkpt lat="44.3252" lon="6.3006">
        <ele>1702.15</ele>
        <time>2022-04-19T13:38:54Z</time>
      </trkpt>
      <trkpt lat="44.32535" lon="6.30046">
        <ele>1699.27</ele>
        <time>2022-04-19T13:39:13Z</time>
      </trkpt>
      <trkpt lat="44.32548" lon="6.30031">
        <ele>1697.34</ele>
        <time>2022-04-19T13:39:29Z</time>
      </trkpt>
      <trkpt lat="44.32567" lon="6.30014">
        <ele>1696.38</ele>
        <time>2022-04-19T13:39:49Z</time>
      </trkpt>
      <trkpt lat="44.32586" lon="6.30003">
        <ele>1693.5</ele>
        <time>2022-04-19T13:40:09Z</time>
      </trkpt>
      <trkpt lat="44.32608" lon="6.2999">
        <ele>1691.1</ele>
        <time>2022-04-19T13:40:30Z</time>
      </trkpt>
      <trkpt lat="44.32615" lon="6.29984">
        <ele>1689.65</ele>
        <time>2022-04-19T13:40:45Z</time>
      </trkpt>
      <trkpt lat="44.32627" lon="6.29964">
        <ele>1687.25</ele>
        <time>2022-04-19T13:41:02Z</time>
      </trkpt>
      <trkpt lat="44.3263" lon="6.29962">
        <ele>1686.77</ele>
        <time>2022-04-19T13:41:13Z</time>
      </trkpt>
      <trkpt lat="44.32642" lon="6.29955">
        <ele>1684.85</ele>
        <time>2022-04-19T13:41:25Z</time>
      </trkpt>
      <trkpt lat="44.3266" lon="6.29942">
        <ele>1680.52</ele>
        <time>2022-04-19T13:41:45Z</time>
      </trkpt>
      <trkpt lat="44.32676" lon="6.29933">
        <ele>1678.6</ele>
        <time>2022-04-19T13:42:03Z</time>
      </trkpt>
      <trkpt lat="44.32685" lon="6.2993">
        <ele>1677.64</ele>
        <time>2022-04-19T13:42:13Z</time>
      </trkpt>
      <trkpt lat="44.32697" lon="6.29932">
        <ele>1676.2</ele>
        <time>2022-04-19T13:42:27Z</time>
      </trkpt>
      <trkpt lat="44.32698" lon="6.29935">
        <ele>1675.23</ele>
        <time>2022-04-19T13:42:41Z</time>
      </trkpt>
      <trkpt lat="44.32698" lon="6.29941">
        <ele>1674.27</ele>
        <time>2022-04-19T13:42:46Z</time>
      </trkpt>
      <trkpt lat="44.3269" lon="6.29961">
        <ele>1674.27</ele>
        <time>2022-04-19T13:43:02Z</time>
      </trkpt>
      <trkpt lat="44.3269" lon="6.29989">
        <ele>1676.68</ele>
        <time>2022-04-19T13:43:19Z</time>
      </trkpt>
      <trkpt lat="44.32702" lon="6.30008">
        <ele>1674.27</ele>
        <time>2022-04-19T13:43:35Z</time>
      </trkpt>
      <trkpt lat="44.32707" lon="6.30018">
        <ele>1673.79</ele>
        <time>2022-04-19T13:43:43Z</time>
      </trkpt>
      <trkpt lat="44.32712" lon="6.30039">
        <ele>1672.35</ele>
        <time>2022-04-19T13:43:59Z</time>
      </trkpt>
      <trkpt lat="44.32721" lon="6.30055">
        <ele>1669.47</ele>
        <time>2022-04-19T13:44:15Z</time>
      </trkpt>
      <trkpt lat="44.32731" lon="6.30066">
        <ele>1667.06</ele>
        <time>2022-04-19T13:44:32Z</time>
      </trkpt>
      <trkpt lat="44.32747" lon="6.3007">
        <ele>1664.18</ele>
        <time>2022-04-19T13:44:49Z</time>
      </trkpt>
      <trkpt lat="44.32763" lon="6.30052">
        <ele>1662.74</ele>
        <time>2022-04-19T13:45:05Z</time>
      </trkpt>
      <trkpt lat="44.32778" lon="6.3003">
        <ele>1664.18</ele>
        <time>2022-04-19T13:45:25Z</time>
      </trkpt>
      <trkpt lat="44.32794" lon="6.3002">
        <ele>1664.66</ele>
        <time>2022-04-19T13:45:41Z</time>
      </trkpt>
      <trkpt lat="44.32812" lon="6.30023">
        <ele>1661.78</ele>
        <time>2022-04-19T13:45:58Z</time>
      </trkpt>
      <trkpt lat="44.32819" lon="6.3003">
        <ele>1660.33</ele>
        <time>2022-04-19T13:46:06Z</time>
      </trkpt>
      <trkpt lat="44.3283" lon="6.3004">
        <ele>1658.41</ele>
        <time>2022-04-19T13:46:22Z</time>
      </trkpt>
      <trkpt lat="44.3283" lon="6.30048">
        <ele>1658.41</ele>
        <time>2022-04-19T13:46:36Z</time>
      </trkpt>
      <trkpt lat="44.32831" lon="6.30052">
        <ele>1658.41</ele>
        <time>2022-04-19T13:46:50Z</time>
      </trkpt>
      <trkpt lat="44.32827" lon="6.30054">
        <ele>1659.37</ele>
        <time>2022-04-19T13:47:06Z</time>
      </trkpt>
      <trkpt lat="44.32827" lon="6.30052">
        <ele>1658.41</ele>
        <time>2022-04-19T13:47:37Z</time>
      </trkpt>
      <trkpt lat="44.32827" lon="6.3006">
        <ele>1658.89</ele>
        <time>2022-04-19T13:48:01Z</time>
      </trkpt>
      <trkpt lat="44.32818" lon="6.3007">
        <ele>1659.85</ele>
        <time>2022-04-19T13:48:15Z</time>
      </trkpt>
      <trkpt lat="44.32817" lon="6.30069">
        <ele>1658.89</ele>
        <time>2022-04-19T13:48:29Z</time>
      </trkpt>
      <trkpt lat="44.32817" lon="6.30069">
        <ele>1659.37</ele>
        <time>2022-04-19T13:48:30Z</time>
      </trkpt>
      <trkpt lat="44.32811" lon="6.30067">
        <ele>1661.3</ele>
        <time>2022-04-19T13:48:44Z</time>
      </trkpt>
      <trkpt lat="44.32812" lon="6.30067">
        <ele>1661.3</ele>
        <time>2022-04-19T13:49:04Z</time>
      </trkpt>
      <trkpt lat="44.32813" lon="6.30067">
        <ele>1660.81</ele>
        <time>2022-04-19T13:49:31Z</time>
      </trkpt>
      <trkpt lat="44.32813" lon="6.30067">
        <ele>1660.33</ele>
        <time>2022-04-19T13:50:00Z</time>
      </trkpt>
      <trkpt lat="44.32812" lon="6.30068">
        <ele>1660.81</ele>
        <time>2022-04-19T13:50:26Z</time>
      </trkpt>
      <trkpt lat="44.32813" lon="6.30067">
        <ele>1662.26</ele>
        <time>2022-04-19T13:50:58Z</time>
      </trkpt>
      <trkpt lat="44.32812" lon="6.30068">
        <ele>1662.26</ele>
        <time>2022-04-19T13:51:23Z</time>
      </trkpt>
      <trkpt lat="44.32812" lon="6.30067">
        <ele>1662.26</ele>
        <time>2022-04-19T13:51:50Z</time>
      </trkpt>
      <trkpt lat="44.32812" lon="6.30066">
        <ele>1662.26</ele>
        <time>2022-04-19T13:52:22Z</time>
      </trkpt>
      <trkpt lat="44.32812" lon="6.30066">
        <ele>1661.78</ele>
        <time>2022-04-19T13:52:52Z</time>
      </trkpt>
      <trkpt lat="44.32812" lon="6.30066">
        <ele>1661.3</ele>
        <time>2022-04-19T13:53:19Z</time>
      </trkpt>
      <trkpt lat="44.32812" lon="6.30066">
        <ele>1661.3</ele>
        <time>2022-04-19T13:53:46Z</time>
      </trkpt>
      <trkpt lat="44.32812" lon="6.30066">
        <ele>1661.3</ele>
        <time>2022-04-19T13:54:14Z</time>
      </trkpt>
      <trkpt lat="44.32812" lon="6.30067">
        <ele>1661.3</ele>
        <time>2022-04-19T13:54:42Z</time>
      </trkpt>
      <trkpt lat="44.32812" lon="6.30067">
        <ele>1662.26</ele>
        <time>2022-04-19T13:55:16Z</time>
      </trkpt>
      <trkpt lat="44.32812" lon="6.30067">
        <ele>1662.74</ele>
        <time>2022-04-19T13:55:47Z</time>
      </trkpt>
      <trkpt lat="44.32812" lon="6.30067">
        <ele>1662.74</ele>
        <time>2022-04-19T13:56:18Z</time>
      </trkpt>
      <trkpt lat="44.32812" lon="6.30067">
        <ele>1662.26</ele>
        <time>2022-04-19T13:56:46Z</time>
      </trkpt>
      <trkpt lat="44.32812" lon="6.30067">
        <ele>1662.74</ele>
        <time>2022-04-19T13:57:14Z</time>
      </trkpt>
      <trkpt lat="44.32812" lon="6.30067">
        <ele>1662.26</ele>
        <time>2022-04-19T13:57:40Z</time>
      </trkpt>
      <trkpt lat="44.32813" lon="6.30066">
        <ele>1661.78</ele>
        <time>2022-04-19T13:58:10Z</time>
      </trkpt>
      <trkpt lat="44.32813" lon="6.30066">
        <ele>1662.26</ele>
        <time>2022-04-19T13:58:43Z</time>
      </trkpt>
      <trkpt lat="44.32814" lon="6.30066">
        <ele>1662.26</ele>
        <time>2022-04-19T13:59:15Z</time>
      </trkpt>
      <trkpt lat="44.32815" lon="6.30067">
        <ele>1662.74</ele>
        <time>2022-04-19T13:59:46Z</time>
      </trkpt>
      <trkpt lat="44.32815" lon="6.30067">
        <ele>1662.74</ele>
        <time>2022-04-19T14:00:18Z</time>
      </trkpt>
      <trkpt lat="44.32815" lon="6.30067">
        <ele>1662.74</ele>
        <time>2022-04-19T14:00:43Z</time>
      </trkpt>
      <trkpt lat="44.32815" lon="6.30067">
        <ele>1662.26</ele>
        <time>2022-04-19T14:01:05Z</time>
      </trkpt>
      <trkpt lat="44.32814" lon="6.30067">
        <ele>1662.74</ele>
        <time>2022-04-19T14:01:27Z</time>
      </trkpt>
      <trkpt lat="44.32813" lon="6.3007">
        <ele>1662.74</ele>
        <time>2022-04-19T14:01:33Z</time>
      </trkpt>
      <trkpt lat="44.32812" lon="6.3008">
        <ele>1663.22</ele>
        <time>2022-04-19T14:01:40Z</time>
      </trkpt>
      <trkpt lat="44.32813" lon="6.30084">
        <ele>1663.7</ele>
        <time>2022-04-19T14:01:43Z</time>
      </trkpt>
      <trkpt lat="44.32812" lon="6.30107">
        <ele>1664.18</ele>
        <time>2022-04-19T14:02:02Z</time>
      </trkpt>
      <trkpt lat="44.32814" lon="6.30117">
        <ele>1664.66</ele>
        <time>2022-04-19T14:02:18Z</time>
      </trkpt>
      <trkpt lat="44.32814" lon="6.30126">
        <ele>1664.18</ele>
        <time>2022-04-19T14:02:32Z</time>
      </trkpt>
      <trkpt lat="44.32811" lon="6.30148">
        <ele>1664.66</ele>
        <time>2022-04-19T14:02:47Z</time>
      </trkpt>
      <trkpt lat="44.32817" lon="6.30173">
        <ele>1664.66</ele>
        <time>2022-04-19T14:03:06Z</time>
      </trkpt>
      <trkpt lat="44.3282" lon="6.30178">
        <ele>1664.66</ele>
        <time>2022-04-19T14:03:23Z</time>
      </trkpt>
      <trkpt lat="44.3283" lon="6.30196">
        <ele>1665.14</ele>
        <time>2022-04-19T14:03:38Z</time>
      </trkpt>
      <trkpt lat="44.32843" lon="6.30213">
        <ele>1665.62</ele>
        <time>2022-04-19T14:03:55Z</time>
      </trkpt>
      <trkpt lat="44.32854" lon="6.30228">
        <ele>1666.58</ele>
        <time>2022-04-19T14:04:10Z</time>
      </trkpt>
      <trkpt lat="44.32865" lon="6.3024">
        <ele>1668.51</ele>
        <time>2022-04-19T14:04:23Z</time>
      </trkpt>
      <trkpt lat="44.32871" lon="6.30246">
        <ele>1669.95</ele>
        <time>2022-04-19T14:04:43Z</time>
      </trkpt>
      <trkpt lat="44.32873" lon="6.30248">
        <ele>1671.39</ele>
        <time>2022-04-19T14:05:10Z</time>
      </trkpt>
      <trkpt lat="44.32873" lon="6.30249">
        <ele>1673.31</ele>
        <time>2022-04-19T14:05:32Z</time>
      </trkpt>
      <trkpt lat="44.32879" lon="6.30256">
        <ele>1673.79</ele>
        <time>2022-04-19T14:05:54Z</time>
      </trkpt>
      <trkpt lat="44.32882" lon="6.3026">
        <ele>1673.79</ele>
        <time>2022-04-19T14:05:57Z</time>
      </trkpt>
      <trkpt lat="44.32896" lon="6.30274">
        <ele>1672.83</ele>
        <time>2022-04-19T14:06:12Z</time>
      </trkpt>
      <trkpt lat="44.32909" lon="6.30277">
        <ele>1672.35</ele>
        <time>2022-04-19T14:06:28Z</time>
      </trkpt>
      <trkpt lat="44.32917" lon="6.30281">
        <ele>1671.87</ele>
        <time>2022-04-19T14:06:43Z</time>
      </trkpt>
      <trkpt lat="44.32935" lon="6.30287">
        <ele>1672.35</ele>
        <time>2022-04-19T14:07:01Z</time>
      </trkpt>
      <trkpt lat="44.32953" lon="6.30286">
        <ele>1672.35</ele>
        <time>2022-04-19T14:07:18Z</time>
      </trkpt>
      <trkpt lat="44.32973" lon="6.30286">
        <ele>1671.87</ele>
        <time>2022-04-19T14:07:36Z</time>
      </trkpt>
      <trkpt lat="44.32994" lon="6.30286">
        <ele>1671.87</ele>
        <time>2022-04-19T14:07:54Z</time>
      </trkpt>
      <trkpt lat="44.33001" lon="6.30286">
        <ele>1671.39</ele>
        <time>2022-04-19T14:08:00Z</time>
      </trkpt>
      <trkpt lat="44.33008" lon="6.30287">
        <ele>1671.39</ele>
        <time>2022-04-19T14:08:18Z</time>
      </trkpt>
      <trkpt lat="44.33021" lon="6.30291">
        <ele>1671.39</ele>
        <time>2022-04-19T14:08:31Z</time>
      </trkpt>
      <trkpt lat="44.33033" lon="6.30299">
        <ele>1669.47</ele>
        <time>2022-04-19T14:08:43Z</time>
      </trkpt>
      <trkpt lat="44.33042" lon="6.30321">
        <ele>1666.58</ele>
        <time>2022-04-19T14:08:59Z</time>
      </trkpt>
      <trkpt lat="44.33051" lon="6.30335">
        <ele>1667.06</ele>
        <time>2022-04-19T14:09:13Z</time>
      </trkpt>
      <trkpt lat="44.33063" lon="6.30353">
        <ele>1668.02</ele>
        <time>2022-04-19T14:09:30Z</time>
      </trkpt>
      <trkpt lat="44.33067" lon="6.30359">
        <ele>1668.51</ele>
        <time>2022-04-19T14:09:43Z</time>
      </trkpt>
      <trkpt lat="44.33071" lon="6.30368">
        <ele>1669.47</ele>
        <time>2022-04-19T14:10:00Z</time>
      </trkpt>
      <trkpt lat="44.33076" lon="6.30385">
        <ele>1670.43</ele>
        <time>2022-04-19T14:10:13Z</time>
      </trkpt>
      <trkpt lat="44.3308" lon="6.30404">
        <ele>1671.39</ele>
        <time>2022-04-19T14:10:29Z</time>
      </trkpt>
      <trkpt lat="44.33078" lon="6.30414">
        <ele>1672.35</ele>
        <time>2022-04-19T14:10:44Z</time>
      </trkpt>
      <trkpt lat="44.33077" lon="6.30416">
        <ele>1673.31</ele>
        <time>2022-04-19T14:11:05Z</time>
      </trkpt>
      <trkpt lat="44.33066" lon="6.30436">
        <ele>1674.27</ele>
        <time>2022-04-19T14:11:20Z</time>
      </trkpt>
      <trkpt lat="44.3305" lon="6.30456">
        <ele>1677.16</ele>
        <time>2022-04-19T14:11:40Z</time>
      </trkpt>
      <trkpt lat="44.33037" lon="6.3047">
        <ele>1680.52</ele>
        <time>2022-04-19T14:11:56Z</time>
      </trkpt>
      <trkpt lat="44.33026" lon="6.30483">
        <ele>1681.48</ele>
        <time>2022-04-19T14:12:11Z</time>
      </trkpt>
      <trkpt lat="44.33014" lon="6.30495">
        <ele>1682.44</ele>
        <time>2022-04-19T14:12:26Z</time>
      </trkpt>
      <trkpt lat="44.33001" lon="6.30508">
        <ele>1683.41</ele>
        <time>2022-04-19T14:12:42Z</time>
      </trkpt>
      <trkpt lat="44.32987" lon="6.3052">
        <ele>1683.89</ele>
        <time>2022-04-19T14:12:59Z</time>
      </trkpt>
      <trkpt lat="44.3297" lon="6.30532">
        <ele>1683.89</ele>
        <time>2022-04-19T14:13:17Z</time>
      </trkpt>
      <trkpt lat="44.32969" lon="6.30533">
        <ele>1683.41</ele>
        <time>2022-04-19T14:13:19Z</time>
      </trkpt>
      <trkpt lat="44.32966" lon="6.30535">
        <ele>1683.41</ele>
        <time>2022-04-19T14:13:22Z</time>
      </trkpt>
      <trkpt lat="44.32952" lon="6.30547">
        <ele>1683.41</ele>
        <time>2022-04-19T14:13:38Z</time>
      </trkpt>
      <trkpt lat="44.3295" lon="6.30548">
        <ele>1683.41</ele>
        <time>2022-04-19T14:13:40Z</time>
      </trkpt>
      <trkpt lat="44.32934" lon="6.30565">
        <ele>1684.37</ele>
        <time>2022-04-19T14:13:58Z</time>
      </trkpt>
      <trkpt lat="44.32921" lon="6.3058">
        <ele>1684.37</ele>
        <time>2022-04-19T14:14:14Z</time>
      </trkpt>
      <trkpt lat="44.32908" lon="6.30593">
        <ele>1684.37</ele>
        <time>2022-04-19T14:14:29Z</time>
      </trkpt>
      <trkpt lat="44.32901" lon="6.30604">
        <ele>1684.85</ele>
        <time>2022-04-19T14:14:40Z</time>
      </trkpt>
      <trkpt lat="44.32889" lon="6.30621">
        <ele>1684.85</ele>
        <time>2022-04-19T14:14:56Z</time>
      </trkpt>
      <trkpt lat="44.32884" lon="6.30626">
        <ele>1684.85</ele>
        <time>2022-04-19T14:15:02Z</time>
      </trkpt>
      <trkpt lat="44.32874" lon="6.30637">
        <ele>1685.81</ele>
        <time>2022-04-19T14:15:19Z</time>
      </trkpt>
      <trkpt lat="44.32869" lon="6.30644">
        <ele>1685.81</ele>
        <time>2022-04-19T14:15:34Z</time>
      </trkpt>
      <trkpt lat="44.32858" lon="6.30657">
        <ele>1686.77</ele>
        <time>2022-04-19T14:15:48Z</time>
      </trkpt>
      <trkpt lat="44.32844" lon="6.30672">
        <ele>1687.73</ele>
        <time>2022-04-19T14:16:05Z</time>
      </trkpt>
      <trkpt lat="44.32829" lon="6.30686">
        <ele>1689.17</ele>
        <time>2022-04-19T14:16:23Z</time>
      </trkpt>
      <trkpt lat="44.32818" lon="6.30699">
        <ele>1689.65</ele>
        <time>2022-04-19T14:16:38Z</time>
      </trkpt>
      <trkpt lat="44.32819" lon="6.30704">
        <ele>1689.65</ele>
        <time>2022-04-19T14:16:49Z</time>
      </trkpt>
      <trkpt lat="44.32816" lon="6.30724">
        <ele>1690.14</ele>
        <time>2022-04-19T14:17:04Z</time>
      </trkpt>
      <trkpt lat="44.32812" lon="6.30733">
        <ele>1690.14</ele>
        <time>2022-04-19T14:17:11Z</time>
      </trkpt>
      <trkpt lat="44.32812" lon="6.30739">
        <ele>1690.62</ele>
        <time>2022-04-19T14:17:15Z</time>
      </trkpt>
      <trkpt lat="44.32816" lon="6.3076">
        <ele>1688.21</ele>
        <time>2022-04-19T14:17:32Z</time>
      </trkpt>
      <trkpt lat="44.32815" lon="6.30768">
        <ele>1686.29</ele>
        <time>2022-04-19T14:17:48Z</time>
      </trkpt>
      <trkpt lat="44.32815" lon="6.30768">
        <ele>1685.81</ele>
        <time>2022-04-19T14:18:21Z</time>
      </trkpt>
      <trkpt lat="44.32814" lon="6.30768">
        <ele>1685.33</ele>
        <time>2022-04-19T14:18:56Z</time>
      </trkpt>
      <trkpt lat="44.32814" lon="6.30768">
        <ele>1684.85</ele>
        <time>2022-04-19T14:19:30Z</time>
      </trkpt>
      <trkpt lat="44.32814" lon="6.30768">
        <ele>1684.85</ele>
        <time>2022-04-19T14:20:02Z</time>
      </trkpt>
      <trkpt lat="44.32814" lon="6.30768">
        <ele>1685.33</ele>
        <time>2022-04-19T14:20:37Z</time>
      </trkpt>
      <trkpt lat="44.32814" lon="6.30767">
        <ele>1685.81</ele>
        <time>2022-04-19T14:21:13Z</time>
      </trkpt>
      <trkpt lat="44.32814" lon="6.30767">
        <ele>1686.29</ele>
        <time>2022-04-19T14:21:50Z</time>
      </trkpt>
      <trkpt lat="44.32814" lon="6.30767">
        <ele>1685.81</ele>
        <time>2022-04-19T14:22:29Z</time>
      </trkpt>
      <trkpt lat="44.32815" lon="6.30767">
        <ele>1685.81</ele>
        <time>2022-04-19T14:23:02Z</time>
      </trkpt>
      <trkpt lat="44.32816" lon="6.30772">
        <ele>1684.85</ele>
        <time>2022-04-19T14:23:16Z</time>
      </trkpt>
      <trkpt lat="44.32815" lon="6.30757">
        <ele>1685.33</ele>
        <time>2022-04-19T14:23:36Z</time>
      </trkpt>
      <trkpt lat="44.32816" lon="6.3075">
        <ele>1685.81</ele>
        <time>2022-04-19T14:23:41Z</time>
      </trkpt>
      <trkpt lat="44.32813" lon="6.30731">
        <ele>1686.77</ele>
        <time>2022-04-19T14:23:55Z</time>
      </trkpt>
      <trkpt lat="44.32816" lon="6.30714">
        <ele>1687.73</ele>
        <time>2022-04-19T14:24:09Z</time>
      </trkpt>
      <trkpt lat="44.32819" lon="6.30703">
        <ele>1687.73</ele>
        <time>2022-04-19T14:24:23Z</time>
      </trkpt>
      <trkpt lat="44.32819" lon="6.30701">
        <ele>1687.25</ele>
        <time>2022-04-19T14:24:28Z</time>
      </trkpt>
      <trkpt lat="44.32809" lon="6.30702">
        <ele>1686.77</ele>
        <time>2022-04-19T14:24:38Z</time>
      </trkpt>
      <trkpt lat="44.32802" lon="6.30708">
        <ele>1685.33</ele>
        <time>2022-04-19T14:24:46Z</time>
      </trkpt>
      <trkpt lat="44.3279" lon="6.30725">
        <ele>1683.89</ele>
        <time>2022-04-19T14:25:04Z</time>
      </trkpt>
      <trkpt lat="44.32781" lon="6.30739">
        <ele>1683.89</ele>
        <time>2022-04-19T14:25:19Z</time>
      </trkpt>
      <trkpt lat="44.32775" lon="6.30759">
        <ele>1681.48</ele>
        <time>2022-04-19T14:25:34Z</time>
      </trkpt>
      <trkpt lat="44.3277" lon="6.30782">
        <ele>1680.52</ele>
        <time>2022-04-19T14:25:51Z</time>
      </trkpt>
      <trkpt lat="44.32764" lon="6.30802">
        <ele>1679.08</ele>
        <time>2022-04-19T14:26:07Z</time>
      </trkpt>
      <trkpt lat="44.32754" lon="6.30819">
        <ele>1678.6</ele>
        <time>2022-04-19T14:26:22Z</time>
      </trkpt>
      <trkpt lat="44.32743" lon="6.30834">
        <ele>1678.6</ele>
        <time>2022-04-19T14:26:38Z</time>
      </trkpt>
      <trkpt lat="44.32733" lon="6.30846">
        <ele>1676.68</ele>
        <time>2022-04-19T14:26:53Z</time>
      </trkpt>
      <trkpt lat="44.32716" lon="6.30857">
        <ele>1676.2</ele>
        <time>2022-04-19T14:27:12Z</time>
      </trkpt>
      <trkpt lat="44.32702" lon="6.30866">
        <ele>1675.72</ele>
        <time>2022-04-19T14:27:26Z</time>
      </trkpt>
      <trkpt lat="44.32687" lon="6.30878">
        <ele>1676.2</ele>
        <time>2022-04-19T14:27:41Z</time>
      </trkpt>
      <trkpt lat="44.32674" lon="6.30893">
        <ele>1675.23</ele>
        <time>2022-04-19T14:27:57Z</time>
      </trkpt>
      <trkpt lat="44.32671" lon="6.30896">
        <ele>1675.23</ele>
        <time>2022-04-19T14:28:11Z</time>
      </trkpt>
      <trkpt lat="44.32671" lon="6.30897">
        <ele>1675.23</ele>
        <time>2022-04-19T14:28:23Z</time>
      </trkpt>
      <trkpt lat="44.32667" lon="6.30904">
        <ele>1674.75</ele>
        <time>2022-04-19T14:28:30Z</time>
      </trkpt>
      <trkpt lat="44.32661" lon="6.30919">
        <ele>1674.27</ele>
        <time>2022-04-19T14:28:46Z</time>
      </trkpt>
      <trkpt lat="44.32655" lon="6.30937">
        <ele>1673.31</ele>
        <time>2022-04-19T14:29:00Z</time>
      </trkpt>
      <trkpt lat="44.32651" lon="6.30955">
        <ele>1671.39</ele>
        <time>2022-04-19T14:29:12Z</time>
      </trkpt>
      <trkpt lat="44.32645" lon="6.30976">
        <ele>1670.91</ele>
        <time>2022-04-19T14:29:29Z</time>
      </trkpt>
      <trkpt lat="44.32637" lon="6.30998">
        <ele>1669.95</ele>
        <time>2022-04-19T14:29:45Z</time>
      </trkpt>
      <trkpt lat="44.32634" lon="6.31011">
        <ele>1667.06</ele>
        <time>2022-04-19T14:30:01Z</time>
      </trkpt>
      <trkpt lat="44.32633" lon="6.31013">
        <ele>1665.62</ele>
        <time>2022-04-19T14:30:30Z</time>
      </trkpt>
      <trkpt lat="44.32627" lon="6.31031">
        <ele>1664.18</ele>
        <time>2022-04-19T14:30:45Z</time>
      </trkpt>
      <trkpt lat="44.32618" lon="6.31052">
        <ele>1662.74</ele>
        <time>2022-04-19T14:31:02Z</time>
      </trkpt>
      <trkpt lat="44.32607" lon="6.31072">
        <ele>1662.26</ele>
        <time>2022-04-19T14:31:19Z</time>
      </trkpt>
      <trkpt lat="44.32606" lon="6.31073">
        <ele>1661.78</ele>
        <time>2022-04-19T14:31:20Z</time>
      </trkpt>
      <trkpt lat="44.32594" lon="6.31088">
        <ele>1658.41</ele>
        <time>2022-04-19T14:31:36Z</time>
      </trkpt>
      <trkpt lat="44.32581" lon="6.31105">
        <ele>1655.53</ele>
        <time>2022-04-19T14:31:54Z</time>
      </trkpt>
      <trkpt lat="44.32573" lon="6.31117">
        <ele>1653.6</ele>
        <time>2022-04-19T14:32:06Z</time>
      </trkpt>
      <trkpt lat="44.3256" lon="6.31136">
        <ele>1651.2</ele>
        <time>2022-04-19T14:32:23Z</time>
      </trkpt>
      <trkpt lat="44.32547" lon="6.31152">
        <ele>1653.12</ele>
        <time>2022-04-19T14:32:38Z</time>
      </trkpt>
      <trkpt lat="44.32535" lon="6.31166">
        <ele>1653.6</ele>
        <time>2022-04-19T14:32:53Z</time>
      </trkpt>
      <trkpt lat="44.32525" lon="6.31182">
        <ele>1651.68</ele>
        <time>2022-04-19T14:33:07Z</time>
      </trkpt>
      <trkpt lat="44.32525" lon="6.31195">
        <ele>1648.8</ele>
        <time>2022-04-19T14:33:16Z</time>
      </trkpt>
      <trkpt lat="44.32527" lon="6.31197">
        <ele>1648.32</ele>
        <time>2022-04-19T14:33:18Z</time>
      </trkpt>
      <trkpt lat="44.32545" lon="6.31194">
        <ele>1643.51</ele>
        <time>2022-04-19T14:33:35Z</time>
      </trkpt>
      <trkpt lat="44.32554" lon="6.31187">
        <ele>1640.15</ele>
        <time>2022-04-19T14:33:46Z</time>
      </trkpt>
      <trkpt lat="44.3257" lon="6.3117">
        <ele>1636.3</ele>
        <time>2022-04-19T14:34:03Z</time>
      </trkpt>
      <trkpt lat="44.32587" lon="6.31158">
        <ele>1635.82</ele>
        <time>2022-04-19T14:34:18Z</time>
      </trkpt>
      <trkpt lat="44.32588" lon="6.31168">
        <ele>1635.82</ele>
        <time>2022-04-19T14:34:25Z</time>
      </trkpt>
      <trkpt lat="44.32579" lon="6.31188">
        <ele>1636.3</ele>
        <time>2022-04-19T14:34:41Z</time>
      </trkpt>
      <trkpt lat="44.32574" lon="6.31206">
        <ele>1637.26</ele>
        <time>2022-04-19T14:34:55Z</time>
      </trkpt>
      <trkpt lat="44.32567" lon="6.31223">
        <ele>1639.19</ele>
        <time>2022-04-19T14:35:08Z</time>
      </trkpt>
      <trkpt lat="44.32566" lon="6.3123">
        <ele>1639.67</ele>
        <time>2022-04-19T14:35:13Z</time>
      </trkpt>
      <trkpt lat="44.32557" lon="6.31249">
        <ele>1639.67</ele>
        <time>2022-04-19T14:35:29Z</time>
      </trkpt>
      <trkpt lat="44.32552" lon="6.31273">
        <ele>1639.67</ele>
        <time>2022-04-19T14:35:46Z</time>
      </trkpt>
      <trkpt lat="44.3255" lon="6.31289">
        <ele>1639.19</ele>
        <time>2022-04-19T14:36:01Z</time>
      </trkpt>
      <trkpt lat="44.32548" lon="6.31297">
        <ele>1639.19</ele>
        <time>2022-04-19T14:36:13Z</time>
      </trkpt>
      <trkpt lat="44.32544" lon="6.31317">
        <ele>1639.19</ele>
        <time>2022-04-19T14:36:28Z</time>
      </trkpt>
      <trkpt lat="44.3254" lon="6.3134">
        <ele>1638.22</ele>
        <time>2022-04-19T14:36:43Z</time>
      </trkpt>
      <trkpt lat="44.32529" lon="6.31359">
        <ele>1636.78</ele>
        <time>2022-04-19T14:36:59Z</time>
      </trkpt>
      <trkpt lat="44.32517" lon="6.31377">
        <ele>1635.82</ele>
        <time>2022-04-19T14:37:15Z</time>
      </trkpt>
      <trkpt lat="44.32504" lon="6.314">
        <ele>1634.38</ele>
        <time>2022-04-19T14:37:33Z</time>
      </trkpt>
      <trkpt lat="44.325" lon="6.31408">
        <ele>1633.42</ele>
        <time>2022-04-19T14:37:39Z</time>
      </trkpt>
      <trkpt lat="44.32496" lon="6.31421">
        <ele>1632.46</ele>
        <time>2022-04-19T14:37:48Z</time>
      </trkpt>
      <trkpt lat="44.32495" lon="6.31425">
        <ele>1632.46</ele>
        <time>2022-04-19T14:38:02Z</time>
      </trkpt>
      <trkpt lat="44.32496" lon="6.31439">
        <ele>1631.98</ele>
        <time>2022-04-19T14:38:20Z</time>
      </trkpt>
      <trkpt lat="44.32497" lon="6.31441">
        <ele>1631.49</ele>
        <time>2022-04-19T14:38:21Z</time>
      </trkpt>
      <trkpt lat="44.325" lon="6.31462">
        <ele>1630.05</ele>
        <time>2022-04-19T14:38:35Z</time>
      </trkpt>
      <trkpt lat="44.32504" lon="6.31475">
        <ele>1629.57</ele>
        <time>2022-04-19T14:38:44Z</time>
      </trkpt>
      <trkpt lat="44.32507" lon="6.31485">
        <ele>1629.57</ele>
        <time>2022-04-19T14:38:50Z</time>
      </trkpt>
      <trkpt lat="44.32517" lon="6.31507">
        <ele>1630.53</ele>
        <time>2022-04-19T14:39:07Z</time>
      </trkpt>
      <trkpt lat="44.32531" lon="6.31517">
        <ele>1629.57</ele>
        <time>2022-04-19T14:39:23Z</time>
      </trkpt>
      <trkpt lat="44.32546" lon="6.31526">
        <ele>1627.17</ele>
        <time>2022-04-19T14:39:39Z</time>
      </trkpt>
      <trkpt lat="44.32544" lon="6.31535">
        <ele>1625.73</ele>
        <time>2022-04-19T14:39:47Z</time>
      </trkpt>
      <trkpt lat="44.32533" lon="6.31552">
        <ele>1621.4</ele>
        <time>2022-04-19T14:40:04Z</time>
      </trkpt>
      <trkpt lat="44.32521" lon="6.31567">
        <ele>1620.92</ele>
        <time>2022-04-19T14:40:20Z</time>
      </trkpt>
      <trkpt lat="44.32513" lon="6.31582">
        <ele>1620.44</ele>
        <time>2022-04-19T14:40:34Z</time>
      </trkpt>
      <trkpt lat="44.32502" lon="6.31599">
        <ele>1619.48</ele>
        <time>2022-04-19T14:40:50Z</time>
      </trkpt>
      <trkpt lat="44.32493" lon="6.31613">
        <ele>1618.52</ele>
        <time>2022-04-19T14:41:06Z</time>
      </trkpt>
      <trkpt lat="44.32487" lon="6.31622">
        <ele>1618.04</ele>
        <time>2022-04-19T14:41:14Z</time>
      </trkpt>
      <trkpt lat="44.32483" lon="6.31627">
        <ele>1617.07</ele>
        <time>2022-04-19T14:41:27Z</time>
      </trkpt>
      <trkpt lat="44.32473" lon="6.3164">
        <ele>1616.11</ele>
        <time>2022-04-19T14:41:41Z</time>
      </trkpt>
      <trkpt lat="44.32461" lon="6.31661">
        <ele>1614.19</ele>
        <time>2022-04-19T14:41:58Z</time>
      </trkpt>
      <trkpt lat="44.32462" lon="6.31681">
        <ele>1613.23</ele>
        <time>2022-04-19T14:42:11Z</time>
      </trkpt>
      <trkpt lat="44.32466" lon="6.31704">
        <ele>1611.79</ele>
        <time>2022-04-19T14:42:27Z</time>
      </trkpt>
      <trkpt lat="44.32462" lon="6.31718">
        <ele>1610.83</ele>
        <time>2022-04-19T14:42:41Z</time>
      </trkpt>
      <trkpt lat="44.32462" lon="6.31717">
        <ele>1609.86</ele>
        <time>2022-04-19T14:42:57Z</time>
      </trkpt>
      <trkpt lat="44.32462" lon="6.31717">
        <ele>1609.86</ele>
        <time>2022-04-19T14:42:58Z</time>
      </trkpt>
      <trkpt lat="44.32456" lon="6.31727">
        <ele>1608.9</ele>
        <time>2022-04-19T14:43:14Z</time>
      </trkpt>
      <trkpt lat="44.32456" lon="6.31727">
        <ele>1608.42</ele>
        <time>2022-04-19T14:43:18Z</time>
      </trkpt>
      <trkpt lat="44.32459" lon="6.31725">
        <ele>1607.94</ele>
        <time>2022-04-19T14:43:37Z</time>
      </trkpt>
      <trkpt lat="44.32459" lon="6.31726">
        <ele>1606.98</ele>
        <time>2022-04-19T14:43:52Z</time>
      </trkpt>
      <trkpt lat="44.32443" lon="6.3174">
        <ele>1603.14</ele>
        <time>2022-04-19T14:44:09Z</time>
      </trkpt>
      <trkpt lat="44.32429" lon="6.31752">
        <ele>1598.81</ele>
        <time>2022-04-19T14:44:26Z</time>
      </trkpt>
      <trkpt lat="44.32417" lon="6.3177">
        <ele>1596.41</ele>
        <time>2022-04-19T14:44:43Z</time>
      </trkpt>
      <trkpt lat="44.32412" lon="6.31783">
        <ele>1594.48</ele>
        <time>2022-04-19T14:44:57Z</time>
      </trkpt>
      <trkpt lat="44.32407" lon="6.31789">
        <ele>1594</ele>
        <time>2022-04-19T14:45:13Z</time>
      </trkpt>
      <trkpt lat="44.32398" lon="6.31807">
        <ele>1592.08</ele>
        <time>2022-04-19T14:45:29Z</time>
      </trkpt>
      <trkpt lat="44.32398" lon="6.31808">
        <ele>1591.6</ele>
        <time>2022-04-19T14:45:30Z</time>
      </trkpt>
      <trkpt lat="44.324" lon="6.31812">
        <ele>1590.64</ele>
        <time>2022-04-19T14:45:33Z</time>
      </trkpt>
      <trkpt lat="44.32414" lon="6.31824">
        <ele>1586.79</ele>
        <time>2022-04-19T14:45:48Z</time>
      </trkpt>
      <trkpt lat="44.32426" lon="6.31833">
        <ele>1582.47</ele>
        <time>2022-04-19T14:46:02Z</time>
      </trkpt>
      <trkpt lat="44.32439" lon="6.31835">
        <ele>1579.1</ele>
        <time>2022-04-19T14:46:18Z</time>
      </trkpt>
      <trkpt lat="44.32446" lon="6.31833">
        <ele>1578.14</ele>
        <time>2022-04-19T14:46:36Z</time>
      </trkpt>
      <trkpt lat="44.32458" lon="6.3183">
        <ele>1578.14</ele>
        <time>2022-04-19T14:46:52Z</time>
      </trkpt>
      <trkpt lat="44.32478" lon="6.31822">
        <ele>1577.66</ele>
        <time>2022-04-19T14:47:09Z</time>
      </trkpt>
      <trkpt lat="44.32488" lon="6.31818">
        <ele>1575.74</ele>
        <time>2022-04-19T14:47:20Z</time>
      </trkpt>
      <trkpt lat="44.3251" lon="6.31813">
        <ele>1575.74</ele>
        <time>2022-04-19T14:47:39Z</time>
      </trkpt>
      <trkpt lat="44.32519" lon="6.31814">
        <ele>1576.22</ele>
        <time>2022-04-19T14:47:48Z</time>
      </trkpt>
      <trkpt lat="44.32538" lon="6.31821">
        <ele>1576.22</ele>
        <time>2022-04-19T14:48:06Z</time>
      </trkpt>
      <trkpt lat="44.32557" lon="6.31827">
        <ele>1573.82</ele>
        <time>2022-04-19T14:48:24Z</time>
      </trkpt>
      <trkpt lat="44.32577" lon="6.31825">
        <ele>1570.93</ele>
        <time>2022-04-19T14:48:41Z</time>
      </trkpt>
      <trkpt lat="44.32592" lon="6.31821">
        <ele>1570.45</ele>
        <time>2022-04-19T14:49:00Z</time>
      </trkpt>
      <trkpt lat="44.32613" lon="6.31813">
        <ele>1569.01</ele>
        <time>2022-04-19T14:49:17Z</time>
      </trkpt>
      <trkpt lat="44.32616" lon="6.31811">
        <ele>1569.01</ele>
        <time>2022-04-19T14:49:19Z</time>
      </trkpt>
      <trkpt lat="44.32635" lon="6.318">
        <ele>1565.16</ele>
        <time>2022-04-19T14:49:37Z</time>
      </trkpt>
      <trkpt lat="44.32652" lon="6.31792">
        <ele>1562.28</ele>
        <time>2022-04-19T14:49:53Z</time>
      </trkpt>
      <trkpt lat="44.32672" lon="6.31788">
        <ele>1560.36</ele>
        <time>2022-04-19T14:50:09Z</time>
      </trkpt>
      <trkpt lat="44.3269" lon="6.31781">
        <ele>1558.92</ele>
        <time>2022-04-19T14:50:25Z</time>
      </trkpt>
      <trkpt lat="44.32706" lon="6.3177">
        <ele>1552.19</ele>
        <time>2022-04-19T14:50:43Z</time>
      </trkpt>
      <trkpt lat="44.32726" lon="6.31757">
        <ele>1544.5</ele>
        <time>2022-04-19T14:51:02Z</time>
      </trkpt>
      <trkpt lat="44.32742" lon="6.31741">
        <ele>1538.73</ele>
        <time>2022-04-19T14:51:19Z</time>
      </trkpt>
      <trkpt lat="44.3276" lon="6.31727">
        <ele>1537.77</ele>
        <time>2022-04-19T14:51:37Z</time>
      </trkpt>
      <trkpt lat="44.32781" lon="6.31715">
        <ele>1548.82</ele>
        <time>2022-04-19T14:51:53Z</time>
      </trkpt>
      <trkpt lat="44.32795" lon="6.31694">
        <ele>1552.19</ele>
        <time>2022-04-19T14:52:10Z</time>
      </trkpt>
      <trkpt lat="44.32798" lon="6.31682">
        <ele>1551.71</ele>
        <time>2022-04-19T14:52:18Z</time>
      </trkpt>
      <trkpt lat="44.32799" lon="6.31678">
        <ele>1552.19</ele>
        <time>2022-04-19T14:52:20Z</time>
      </trkpt>
      <trkpt lat="44.3281" lon="6.31652">
        <ele>1551.22</ele>
        <time>2022-04-19T14:52:38Z</time>
      </trkpt>
      <trkpt lat="44.3282" lon="6.31634">
        <ele>1549.3</ele>
        <time>2022-04-19T14:52:54Z</time>
      </trkpt>
      <trkpt lat="44.32824" lon="6.3165">
        <ele>1547.86</ele>
        <time>2022-04-19T14:53:10Z</time>
      </trkpt>
      <trkpt lat="44.32825" lon="6.31684">
        <ele>1547.38</ele>
        <time>2022-04-19T14:53:29Z</time>
      </trkpt>
      <trkpt lat="44.32827" lon="6.31698">
        <ele>1547.86</ele>
        <time>2022-04-19T14:53:42Z</time>
      </trkpt>
      <trkpt lat="44.32829" lon="6.31716">
        <ele>1547.38</ele>
        <time>2022-04-19T14:53:57Z</time>
      </trkpt>
      <trkpt lat="44.32831" lon="6.31746">
        <ele>1546.9</ele>
        <time>2022-04-19T14:54:15Z</time>
      </trkpt>
      <trkpt lat="44.32827" lon="6.31772">
        <ele>1544.98</ele>
        <time>2022-04-19T14:54:33Z</time>
      </trkpt>
      <trkpt lat="44.32824" lon="6.31791">
        <ele>1543.53</ele>
        <time>2022-04-19T14:54:47Z</time>
      </trkpt>
      <trkpt lat="44.32823" lon="6.31795">
        <ele>1543.53</ele>
        <time>2022-04-19T14:54:50Z</time>
      </trkpt>
      <trkpt lat="44.32821" lon="6.31804">
        <ele>1543.05</ele>
        <time>2022-04-19T14:54:57Z</time>
      </trkpt>
      <trkpt lat="44.32816" lon="6.31828">
        <ele>1541.61</ele>
        <time>2022-04-19T14:55:12Z</time>
      </trkpt>
      <trkpt lat="44.32808" lon="6.31846">
        <ele>1537.77</ele>
        <time>2022-04-19T14:55:27Z</time>
      </trkpt>
      <trkpt lat="44.32796" lon="6.31866">
        <ele>1531.52</ele>
        <time>2022-04-19T14:55:45Z</time>
      </trkpt>
      <trkpt lat="44.32783" lon="6.31878">
        <ele>1526.71</ele>
        <time>2022-04-19T14:56:00Z</time>
      </trkpt>
      <trkpt lat="44.32769" lon="6.31889">
        <ele>1521.42</ele>
        <time>2022-04-19T14:56:14Z</time>
      </trkpt>
      <trkpt lat="44.32756" lon="6.31901">
        <ele>1518.06</ele>
        <time>2022-04-19T14:56:28Z</time>
      </trkpt>
      <trkpt lat="44.32739" lon="6.31916">
        <ele>1513.25</ele>
        <time>2022-04-19T14:56:46Z</time>
      </trkpt>
      <trkpt lat="44.32726" lon="6.3193">
        <ele>1509.89</ele>
        <time>2022-04-19T14:57:01Z</time>
      </trkpt>
      <trkpt lat="44.32717" lon="6.3195">
        <ele>1507.48</ele>
        <time>2022-04-19T14:57:17Z</time>
      </trkpt>
      <trkpt lat="44.32719" lon="6.31963">
        <ele>1505.56</ele>
        <time>2022-04-19T14:57:30Z</time>
      </trkpt>
      <trkpt lat="44.32723" lon="6.31971">
        <ele>1504.12</ele>
        <time>2022-04-19T14:57:37Z</time>
      </trkpt>
      <trkpt lat="44.32735" lon="6.31983">
        <ele>1505.08</ele>
        <time>2022-04-19T14:57:50Z</time>
      </trkpt>
      <trkpt lat="44.32753" lon="6.31988">
        <ele>1509.89</ele>
        <time>2022-04-19T14:58:06Z</time>
      </trkpt>
      <trkpt lat="44.32773" lon="6.3199">
        <ele>1513.25</ele>
        <time>2022-04-19T14:58:23Z</time>
      </trkpt>
      <trkpt lat="44.3279" lon="6.31995">
        <ele>1510.85</ele>
        <time>2022-04-19T14:58:39Z</time>
      </trkpt>
      <trkpt lat="44.32806" lon="6.32012">
        <ele>1506.52</ele>
        <time>2022-04-19T14:58:57Z</time>
      </trkpt>
      <trkpt lat="44.32806" lon="6.32018">
        <ele>1505.56</ele>
        <time>2022-04-19T14:59:01Z</time>
      </trkpt>
      <trkpt lat="44.32794" lon="6.32043">
        <ele>1507.97</ele>
        <time>2022-04-19T14:59:16Z</time>
      </trkpt>
      <trkpt lat="44.32784" lon="6.32057">
        <ele>1503.64</ele>
        <time>2022-04-19T14:59:30Z</time>
      </trkpt>
      <trkpt lat="44.3277" lon="6.32071">
        <ele>1499.31</ele>
        <time>2022-04-19T14:59:44Z</time>
      </trkpt>
      <trkpt lat="44.32753" lon="6.3209">
        <ele>1502.68</ele>
        <time>2022-04-19T15:00:01Z</time>
      </trkpt>
      <trkpt lat="44.32741" lon="6.32105">
        <ele>1503.16</ele>
        <time>2022-04-19T15:00:17Z</time>
      </trkpt>
      <trkpt lat="44.32724" lon="6.32125">
        <ele>1502.68</ele>
        <time>2022-04-19T15:00:34Z</time>
      </trkpt>
      <trkpt lat="44.32709" lon="6.32143">
        <ele>1503.16</ele>
        <time>2022-04-19T15:00:50Z</time>
      </trkpt>
      <trkpt lat="44.32693" lon="6.32163">
        <ele>1501.72</ele>
        <time>2022-04-19T15:01:07Z</time>
      </trkpt>
      <trkpt lat="44.32681" lon="6.32182">
        <ele>1500.27</ele>
        <time>2022-04-19T15:01:23Z</time>
      </trkpt>
      <trkpt lat="44.32667" lon="6.32207">
        <ele>1499.79</ele>
        <time>2022-04-19T15:01:41Z</time>
      </trkpt>
      <trkpt lat="44.32653" lon="6.32226">
        <ele>1500.27</ele>
        <time>2022-04-19T15:01:58Z</time>
      </trkpt>
      <trkpt lat="44.32638" lon="6.32245">
        <ele>1499.79</ele>
        <time>2022-04-19T15:02:15Z</time>
      </trkpt>
      <trkpt lat="44.32629" lon="6.32266">
        <ele>1497.87</ele>
        <time>2022-04-19T15:02:30Z</time>
      </trkpt>
      <trkpt lat="44.32626" lon="6.32288">
        <ele>1497.87</ele>
        <time>2022-04-19T15:02:43Z</time>
      </trkpt>
      <trkpt lat="44.32625" lon="6.32315">
        <ele>1496.43</ele>
        <time>2022-04-19T15:03:00Z</time>
      </trkpt>
      <trkpt lat="44.32624" lon="6.32341">
        <ele>1495.95</ele>
        <time>2022-04-19T15:03:16Z</time>
      </trkpt>
      <trkpt lat="44.32621" lon="6.32364">
        <ele>1496.43</ele>
        <time>2022-04-19T15:03:31Z</time>
      </trkpt>
      <trkpt lat="44.32609" lon="6.32392">
        <ele>1494.03</ele>
        <time>2022-04-19T15:03:51Z</time>
      </trkpt>
      <trkpt lat="44.32599" lon="6.32414">
        <ele>1491.62</ele>
        <time>2022-04-19T15:04:09Z</time>
      </trkpt>
      <trkpt lat="44.32587" lon="6.32439">
        <ele>1489.7</ele>
        <time>2022-04-19T15:04:27Z</time>
      </trkpt>
      <trkpt lat="44.32576" lon="6.3246">
        <ele>1487.3</ele>
        <time>2022-04-19T15:04:44Z</time>
      </trkpt>
      <trkpt lat="44.32564" lon="6.32484">
        <ele>1487.78</ele>
        <time>2022-04-19T15:05:02Z</time>
      </trkpt>
      <trkpt lat="44.3255" lon="6.32501">
        <ele>1487.78</ele>
        <time>2022-04-19T15:05:19Z</time>
      </trkpt>
      <trkpt lat="44.32544" lon="6.32523">
        <ele>1485.37</ele>
        <time>2022-04-19T15:05:36Z</time>
      </trkpt>
      <trkpt lat="44.32546" lon="6.32549">
        <ele>1484.41</ele>
        <time>2022-04-19T15:05:54Z</time>
      </trkpt>
      <trkpt lat="44.32549" lon="6.32573">
        <ele>1482.01</ele>
        <time>2022-04-19T15:06:08Z</time>
      </trkpt>
      <trkpt lat="44.32548" lon="6.32579">
        <ele>1481.05</ele>
        <time>2022-04-19T15:06:22Z</time>
      </trkpt>
      <trkpt lat="44.32546" lon="6.32597">
        <ele>1480.09</ele>
        <time>2022-04-19T15:06:38Z</time>
      </trkpt>
      <trkpt lat="44.32545" lon="6.32598">
        <ele>1480.09</ele>
        <time>2022-04-19T15:06:39Z</time>
      </trkpt>
      <trkpt lat="44.32536" lon="6.32623">
        <ele>1479.13</ele>
        <time>2022-04-19T15:06:58Z</time>
      </trkpt>
      <trkpt lat="44.32532" lon="6.32641">
        <ele>1477.2</ele>
        <time>2022-04-19T15:07:14Z</time>
      </trkpt>
      <trkpt lat="44.32531" lon="6.32642">
        <ele>1476.72</ele>
        <time>2022-04-19T15:07:35Z</time>
      </trkpt>
      <trkpt lat="44.32532" lon="6.32642">
        <ele>1476.24</ele>
        <time>2022-04-19T15:07:57Z</time>
      </trkpt>
      <trkpt lat="44.32541" lon="6.32664">
        <ele>1474.8</ele>
        <time>2022-04-19T15:08:13Z</time>
      </trkpt>
      <trkpt lat="44.32554" lon="6.32673">
        <ele>1469.99</ele>
        <time>2022-04-19T15:08:31Z</time>
      </trkpt>
      <trkpt lat="44.32556" lon="6.32676">
        <ele>1469.51</ele>
        <time>2022-04-19T15:08:41Z</time>
      </trkpt>
      <trkpt lat="44.32564" lon="6.32698">
        <ele>1466.63</ele>
        <time>2022-04-19T15:08:58Z</time>
      </trkpt>
      <trkpt lat="44.32573" lon="6.32718">
        <ele>1466.15</ele>
        <time>2022-04-19T15:09:14Z</time>
      </trkpt>
      <trkpt lat="44.32571" lon="6.32742">
        <ele>1464.71</ele>
        <time>2022-04-19T15:09:32Z</time>
      </trkpt>
      <trkpt lat="44.32568" lon="6.32744">
        <ele>1464.71</ele>
        <time>2022-04-19T15:09:37Z</time>
      </trkpt>
      <trkpt lat="44.32559" lon="6.3275">
        <ele>1464.23</ele>
        <time>2022-04-19T15:09:54Z</time>
      </trkpt>
      <trkpt lat="44.32543" lon="6.32761">
        <ele>1462.3</ele>
        <time>2022-04-19T15:10:11Z</time>
      </trkpt>
      <trkpt lat="44.32528" lon="6.32774">
        <ele>1461.34</ele>
        <time>2022-04-19T15:10:28Z</time>
      </trkpt>
      <trkpt lat="44.32515" lon="6.32789">
        <ele>1455.57</ele>
        <time>2022-04-19T15:10:46Z</time>
      </trkpt>
      <trkpt lat="44.32511" lon="6.32795">
        <ele>1455.09</ele>
        <time>2022-04-19T15:11:02Z</time>
      </trkpt>
      <trkpt lat="44.32513" lon="6.32797">
        <ele>1455.57</ele>
        <time>2022-04-19T15:11:13Z</time>
      </trkpt>
      <trkpt lat="44.32516" lon="6.32804">
        <ele>1454.61</ele>
        <time>2022-04-19T15:11:18Z</time>
      </trkpt>
      <trkpt lat="44.32524" lon="6.32805">
        <ele>1454.13</ele>
        <time>2022-04-19T15:11:24Z</time>
      </trkpt>
      <trkpt lat="44.32538" lon="6.32799">
        <ele>1451.25</ele>
        <time>2022-04-19T15:11:40Z</time>
      </trkpt>
      <trkpt lat="44.32553" lon="6.32794">
        <ele>1448.36</ele>
        <time>2022-04-19T15:11:56Z</time>
      </trkpt>
      <trkpt lat="44.3257" lon="6.32791">
        <ele>1449.32</ele>
        <time>2022-04-19T15:12:11Z</time>
      </trkpt>
      <trkpt lat="44.32594" lon="6.32786">
        <ele>1452.21</ele>
        <time>2022-04-19T15:12:28Z</time>
      </trkpt>
      <trkpt lat="44.32614" lon="6.32784">
        <ele>1453.17</ele>
        <time>2022-04-19T15:12:45Z</time>
      </trkpt>
      <trkpt lat="44.32631" lon="6.32784">
        <ele>1453.65</ele>
        <time>2022-04-19T15:13:02Z</time>
      </trkpt>
      <trkpt lat="44.32655" lon="6.32788">
        <ele>1455.09</ele>
        <time>2022-04-19T15:13:20Z</time>
      </trkpt>
      <trkpt lat="44.32673" lon="6.32794">
        <ele>1455.09</ele>
        <time>2022-04-19T15:13:35Z</time>
      </trkpt>
      <trkpt lat="44.32689" lon="6.32805">
        <ele>1454.61</ele>
        <time>2022-04-19T15:13:52Z</time>
      </trkpt>
      <trkpt lat="44.3271" lon="6.32812">
        <ele>1453.65</ele>
        <time>2022-04-19T15:14:11Z</time>
      </trkpt>
      <trkpt lat="44.32716" lon="6.32806">
        <ele>1454.61</ele>
        <time>2022-04-19T15:14:19Z</time>
      </trkpt>
      <trkpt lat="44.32727" lon="6.32793">
        <ele>1452.21</ele>
        <time>2022-04-19T15:14:31Z</time>
      </trkpt>
      <trkpt lat="44.32735" lon="6.32773">
        <ele>1448.36</ele>
        <time>2022-04-19T15:14:47Z</time>
      </trkpt>
      <trkpt lat="44.3275" lon="6.32753">
        <ele>1447.88</ele>
        <time>2022-04-19T15:15:05Z</time>
      </trkpt>
      <trkpt lat="44.32761" lon="6.32743">
        <ele>1448.84</ele>
        <time>2022-04-19T15:15:16Z</time>
      </trkpt>
      <trkpt lat="44.32767" lon="6.32733">
        <ele>1449.32</ele>
        <time>2022-04-19T15:15:33Z</time>
      </trkpt>
      <trkpt lat="44.32767" lon="6.32734">
        <ele>1450.29</ele>
        <time>2022-04-19T15:15:49Z</time>
      </trkpt>
      <trkpt lat="44.32771" lon="6.32736">
        <ele>1449.81</ele>
        <time>2022-04-19T15:16:11Z</time>
      </trkpt>
      <trkpt lat="44.32772" lon="6.32741">
        <ele>1448.36</ele>
        <time>2022-04-19T15:16:24Z</time>
      </trkpt>
      <trkpt lat="44.32777" lon="6.32742">
        <ele>1448.36</ele>
        <time>2022-04-19T15:16:39Z</time>
      </trkpt>
      <trkpt lat="44.32783" lon="6.32746">
        <ele>1447.4</ele>
        <time>2022-04-19T15:16:53Z</time>
      </trkpt>
      <trkpt lat="44.32796" lon="6.32743">
        <ele>1446.44</ele>
        <time>2022-04-19T15:17:06Z</time>
      </trkpt>
      <trkpt lat="44.32804" lon="6.32742">
        <ele>1446.92</ele>
        <time>2022-04-19T15:17:12Z</time>
      </trkpt>
      <trkpt lat="44.32809" lon="6.32745">
        <ele>1445.96</ele>
        <time>2022-04-19T15:17:28Z</time>
      </trkpt>
      <trkpt lat="44.32809" lon="6.32745">
        <ele>1445.96</ele>
        <time>2022-04-19T15:17:41Z</time>
      </trkpt>
      <trkpt lat="44.3281" lon="6.32744">
        <ele>1446.44</ele>
        <time>2022-04-19T15:18:01Z</time>
      </trkpt>
      <trkpt lat="44.32812" lon="6.32737">
        <ele>1446.44</ele>
        <time>2022-04-19T15:18:27Z</time>
      </trkpt>
      <trkpt lat="44.32812" lon="6.32732">
        <ele>1446.44</ele>
        <time>2022-04-19T15:18:49Z</time>
      </trkpt>
    </trkseg>
  </trk>
</gpx>